<?xml version="1.0" encoding="UTF-8" standalone="no" ?>
<gpx xmlns="http://www.topografix.com/GPX/1/1" xmlns:xsi="http://www.w3.org/2001/XMLSchema-instance" xsi:schemaLocation="http://www.topografix.com/GPX/1/1 http://www.topografix.com/GPX/1/1/gpx.xsd" version="1.1" creator="VisuGPX - https://www.visugpx.com">
  <metadata>
    <name>Pointe d'Ardens</name>
    <desc><![CDATA[grp_trc:]]></desc>
  </metadata>
  <trk>
    <name><![CDATA[Pointe d'Ardens_1]]></name>
    <desc><![CDATA[comment ...]]></desc>
    <trkseg>
      <trkpt lat="46.24769" lon="6.75509">
        <ele>1205</ele>
        <time>2025-03-15T08:43:16Z</time>
      </trkpt>
      <trkpt lat="46.24765" lon="6.75509">
        <ele>1204</ele>
        <time>2025-03-15T08:43:22Z</time>
      </trkpt>
      <trkpt lat="46.24748" lon="6.75519">
        <ele>1207</ele>
        <time>2025-03-15T08:43:44Z</time>
      </trkpt>
      <trkpt lat="46.24744" lon="6.75521">
        <ele>1208</ele>
        <time>2025-03-15T08:43:50Z</time>
      </trkpt>
      <trkpt lat="46.2474" lon="6.75522">
        <ele>1209</ele>
        <time>2025-03-15T08:44:26Z</time>
      </trkpt>
      <trkpt lat="46.24722" lon="6.75528">
        <ele>1211</ele>
        <time>2025-03-15T08:44:48Z</time>
      </trkpt>
      <trkpt lat="46.24707" lon="6.75527">
        <ele>1215</ele>
        <time>2025-03-15T08:45:06Z</time>
      </trkpt>
      <trkpt lat="46.24688" lon="6.75532">
        <ele>1216</ele>
        <time>2025-03-15T08:45:40Z</time>
      </trkpt>
      <trkpt lat="46.24661" lon="6.75552">
        <ele>1218</ele>
        <time>2025-03-15T08:46:34Z</time>
      </trkpt>
      <trkpt lat="46.24653" lon="6.7556">
        <ele>1219</ele>
        <time>2025-03-15T08:46:48Z</time>
      </trkpt>
      <trkpt lat="46.24644" lon="6.75563">
        <ele>1222</ele>
        <time>2025-03-15T08:47:00Z</time>
      </trkpt>
      <trkpt lat="46.24635" lon="6.75566">
        <ele>1223</ele>
        <time>2025-03-15T08:47:12Z</time>
      </trkpt>
      <trkpt lat="46.24616" lon="6.75567">
        <ele>1227</ele>
        <time>2025-03-15T08:47:36Z</time>
      </trkpt>
      <trkpt lat="46.24597" lon="6.75569">
        <ele>1231</ele>
        <time>2025-03-15T08:48:00Z</time>
      </trkpt>
      <trkpt lat="46.24578" lon="6.75569">
        <ele>1235</ele>
        <time>2025-03-15T08:48:24Z</time>
      </trkpt>
      <trkpt lat="46.24559" lon="6.75571">
        <ele>1235</ele>
        <time>2025-03-15T08:48:50Z</time>
      </trkpt>
      <trkpt lat="46.24529" lon="6.75566">
        <ele>1240</ele>
        <time>2025-03-15T08:49:26Z</time>
      </trkpt>
      <trkpt lat="46.2451" lon="6.75562">
        <ele>1241</ele>
        <time>2025-03-15T08:49:48Z</time>
      </trkpt>
      <trkpt lat="46.24491" lon="6.75558">
        <ele>1243</ele>
        <time>2025-03-15T08:50:12Z</time>
      </trkpt>
      <trkpt lat="46.24462" lon="6.7555">
        <ele>1244</ele>
        <time>2025-03-15T08:50:48Z</time>
      </trkpt>
      <trkpt lat="46.24435" lon="6.75533">
        <ele>1248</ele>
        <time>2025-03-15T08:51:26Z</time>
      </trkpt>
      <trkpt lat="46.2443" lon="6.75523">
        <ele>1249</ele>
        <time>2025-03-15T08:51:36Z</time>
      </trkpt>
      <trkpt lat="46.24424" lon="6.75512">
        <ele>1254</ele>
        <time>2025-03-15T08:51:48Z</time>
      </trkpt>
      <trkpt lat="46.2441" lon="6.75476">
        <ele>1255</ele>
        <time>2025-03-15T08:52:26Z</time>
      </trkpt>
      <trkpt lat="46.24403" lon="6.75468">
        <ele>1256</ele>
        <time>2025-03-15T08:52:40Z</time>
      </trkpt>
      <trkpt lat="46.24393" lon="6.75465">
        <ele>1258</ele>
        <time>2025-03-15T08:52:52Z</time>
      </trkpt>
      <trkpt lat="46.24383" lon="6.75469">
        <ele>1258</ele>
        <time>2025-03-15T08:53:06Z</time>
      </trkpt>
      <trkpt lat="46.24374" lon="6.75473">
        <ele>1257</ele>
        <time>2025-03-15T08:53:36Z</time>
      </trkpt>
      <trkpt lat="46.24364" lon="6.75474">
        <ele>1259</ele>
        <time>2025-03-15T08:53:48Z</time>
      </trkpt>
      <trkpt lat="46.24354" lon="6.75474">
        <ele>1253</ele>
        <time>2025-03-15T08:53:59Z</time>
      </trkpt>
      <trkpt lat="46.24341" lon="6.75467">
        <ele>1246</ele>
        <time>2025-03-15T08:54:12Z</time>
      </trkpt>
      <trkpt lat="46.24336" lon="6.75464">
        <ele>1252</ele>
        <time>2025-03-15T08:54:28Z</time>
      </trkpt>
      <trkpt lat="46.24323" lon="6.75435">
        <ele>1258</ele>
        <time>2025-03-15T08:54:52Z</time>
      </trkpt>
      <trkpt lat="46.24319" lon="6.75432">
        <ele>1257</ele>
        <time>2025-03-15T08:54:58Z</time>
      </trkpt>
      <trkpt lat="46.24312" lon="6.75421">
        <ele>1259</ele>
        <time>2025-03-15T08:55:08Z</time>
      </trkpt>
      <trkpt lat="46.24305" lon="6.7541">
        <ele>1262</ele>
        <time>2025-03-15T08:55:20Z</time>
      </trkpt>
      <trkpt lat="46.24299" lon="6.75398">
        <ele>1262</ele>
        <time>2025-03-15T08:55:32Z</time>
      </trkpt>
      <trkpt lat="46.24293" lon="6.75387">
        <ele>1262</ele>
        <time>2025-03-15T08:55:42Z</time>
      </trkpt>
      <trkpt lat="46.24281" lon="6.75361">
        <ele>1263</ele>
        <time>2025-03-15T08:56:06Z</time>
      </trkpt>
      <trkpt lat="46.24275" lon="6.75351">
        <ele>1264</ele>
        <time>2025-03-15T08:56:16Z</time>
      </trkpt>
      <trkpt lat="46.24266" lon="6.75344">
        <ele>1263</ele>
        <time>2025-03-15T08:56:28Z</time>
      </trkpt>
      <trkpt lat="46.24258" lon="6.75336">
        <ele>1263</ele>
        <time>2025-03-15T08:56:40Z</time>
      </trkpt>
      <trkpt lat="46.24251" lon="6.75323">
        <ele>1267</ele>
        <time>2025-03-15T08:56:52Z</time>
      </trkpt>
      <trkpt lat="46.24248" lon="6.75307">
        <ele>1270</ele>
        <time>2025-03-15T08:57:04Z</time>
      </trkpt>
      <trkpt lat="46.24233" lon="6.75271">
        <ele>1271</ele>
        <time>2025-03-15T08:57:42Z</time>
      </trkpt>
      <trkpt lat="46.24214" lon="6.75239">
        <ele>1270</ele>
        <time>2025-03-15T08:58:10Z</time>
      </trkpt>
      <trkpt lat="46.24208" lon="6.75229">
        <ele>1271</ele>
        <time>2025-03-15T08:58:24Z</time>
      </trkpt>
      <trkpt lat="46.24195" lon="6.75191">
        <ele>1271</ele>
        <time>2025-03-15T08:58:54Z</time>
      </trkpt>
      <trkpt lat="46.24191" lon="6.75178">
        <ele>1270</ele>
        <time>2025-03-15T08:59:04Z</time>
      </trkpt>
      <trkpt lat="46.24183" lon="6.7517">
        <ele>1271</ele>
        <time>2025-03-15T08:59:14Z</time>
      </trkpt>
      <trkpt lat="46.24171" lon="6.75146">
        <ele>1271</ele>
        <time>2025-03-15T08:59:48Z</time>
      </trkpt>
      <trkpt lat="46.2416" lon="6.75105">
        <ele>1271</ele>
        <time>2025-03-15T09:00:34Z</time>
      </trkpt>
      <trkpt lat="46.24156" lon="6.7509">
        <ele>1269</ele>
        <time>2025-03-15T09:01:00Z</time>
      </trkpt>
      <trkpt lat="46.2415" lon="6.75064">
        <ele>1267</ele>
        <time>2025-03-15T09:01:22Z</time>
      </trkpt>
      <trkpt lat="46.24137" lon="6.75022">
        <ele>1262</ele>
        <time>2025-03-15T09:02:00Z</time>
      </trkpt>
      <trkpt lat="46.24127" lon="6.74983">
        <ele>1261</ele>
        <time>2025-03-15T09:02:32Z</time>
      </trkpt>
      <trkpt lat="46.24121" lon="6.74969">
        <ele>1263</ele>
        <time>2025-03-15T09:02:42Z</time>
      </trkpt>
      <trkpt lat="46.24112" lon="6.74959">
        <ele>1265</ele>
        <time>2025-03-15T09:02:54Z</time>
      </trkpt>
      <trkpt lat="46.24102" lon="6.74956">
        <ele>1267</ele>
        <time>2025-03-15T09:03:04Z</time>
      </trkpt>
      <trkpt lat="46.24074" lon="6.74945">
        <ele>1270</ele>
        <time>2025-03-15T09:03:30Z</time>
      </trkpt>
      <trkpt lat="46.24048" lon="6.74927">
        <ele>1274</ele>
        <time>2025-03-15T09:04:04Z</time>
      </trkpt>
      <trkpt lat="46.24019" lon="6.7491">
        <ele>1275</ele>
        <time>2025-03-15T09:04:40Z</time>
      </trkpt>
      <trkpt lat="46.24" lon="6.74905">
        <ele>1275</ele>
        <time>2025-03-15T09:05:06Z</time>
      </trkpt>
      <trkpt lat="46.23991" lon="6.74906">
        <ele>1278</ele>
        <time>2025-03-15T09:05:16Z</time>
      </trkpt>
      <trkpt lat="46.23979" lon="6.74909">
        <ele>1279</ele>
        <time>2025-03-15T09:07:58Z</time>
      </trkpt>
      <trkpt lat="46.23973" lon="6.749">
        <ele>1279</ele>
        <time>2025-03-15T09:10:31Z</time>
      </trkpt>
      <trkpt lat="46.23967" lon="6.74888">
        <ele>1280</ele>
        <time>2025-03-15T09:10:47Z</time>
      </trkpt>
      <trkpt lat="46.23961" lon="6.74878">
        <ele>1281</ele>
        <time>2025-03-15T09:11:01Z</time>
      </trkpt>
      <trkpt lat="46.23953" lon="6.74872">
        <ele>1282</ele>
        <time>2025-03-15T09:11:15Z</time>
      </trkpt>
      <trkpt lat="46.23936" lon="6.74859">
        <ele>1285</ele>
        <time>2025-03-15T09:11:45Z</time>
      </trkpt>
      <trkpt lat="46.23927" lon="6.74853">
        <ele>1287</ele>
        <time>2025-03-15T09:12:01Z</time>
      </trkpt>
      <trkpt lat="46.23917" lon="6.74849">
        <ele>1289</ele>
        <time>2025-03-15T09:12:17Z</time>
      </trkpt>
      <trkpt lat="46.23907" lon="6.74846">
        <ele>1290</ele>
        <time>2025-03-15T09:12:31Z</time>
      </trkpt>
      <trkpt lat="46.23889" lon="6.74839">
        <ele>1293</ele>
        <time>2025-03-15T09:13:05Z</time>
      </trkpt>
      <trkpt lat="46.2386" lon="6.74838">
        <ele>1298</ele>
        <time>2025-03-15T09:13:49Z</time>
      </trkpt>
      <trkpt lat="46.23851" lon="6.74839">
        <ele>1300</ele>
        <time>2025-03-15T09:14:05Z</time>
      </trkpt>
      <trkpt lat="46.23841" lon="6.74838">
        <ele>1303</ele>
        <time>2025-03-15T09:14:21Z</time>
      </trkpt>
      <trkpt lat="46.23832" lon="6.74837">
        <ele>1306</ele>
        <time>2025-03-15T09:14:39Z</time>
      </trkpt>
      <trkpt lat="46.23815" lon="6.7485">
        <ele>1311</ele>
        <time>2025-03-15T09:15:23Z</time>
      </trkpt>
      <trkpt lat="46.23798" lon="6.74861">
        <ele>1314</ele>
        <time>2025-03-15T09:15:57Z</time>
      </trkpt>
      <trkpt lat="46.23783" lon="6.74877">
        <ele>1317</ele>
        <time>2025-03-15T09:16:29Z</time>
      </trkpt>
      <trkpt lat="46.23776" lon="6.74886">
        <ele>1321</ele>
        <time>2025-03-15T09:16:45Z</time>
      </trkpt>
      <trkpt lat="46.23768" lon="6.74893">
        <ele>1322</ele>
        <time>2025-03-15T09:16:59Z</time>
      </trkpt>
      <trkpt lat="46.2376" lon="6.74899">
        <ele>1324</ele>
        <time>2025-03-15T09:17:15Z</time>
      </trkpt>
      <trkpt lat="46.2375" lon="6.74902">
        <ele>1326</ele>
        <time>2025-03-15T09:17:33Z</time>
      </trkpt>
      <trkpt lat="46.23737" lon="6.74884">
        <ele>1328</ele>
        <time>2025-03-15T09:18:03Z</time>
      </trkpt>
      <trkpt lat="46.23732" lon="6.74874">
        <ele>1330</ele>
        <time>2025-03-15T09:18:17Z</time>
      </trkpt>
      <trkpt lat="46.23735" lon="6.74861">
        <ele>1333</ele>
        <time>2025-03-15T09:18:35Z</time>
      </trkpt>
      <trkpt lat="46.23738" lon="6.74849">
        <ele>1339</ele>
        <time>2025-03-15T09:18:55Z</time>
      </trkpt>
      <trkpt lat="46.23739" lon="6.74835">
        <ele>1340</ele>
        <time>2025-03-15T09:19:11Z</time>
      </trkpt>
      <trkpt lat="46.23727" lon="6.7481">
        <ele>1342</ele>
        <time>2025-03-15T09:19:41Z</time>
      </trkpt>
      <trkpt lat="46.23716" lon="6.74775">
        <ele>1344</ele>
        <time>2025-03-15T09:20:13Z</time>
      </trkpt>
      <trkpt lat="46.23711" lon="6.74762">
        <ele>1345</ele>
        <time>2025-03-15T09:20:27Z</time>
      </trkpt>
      <trkpt lat="46.23704" lon="6.74754">
        <ele>1344</ele>
        <time>2025-03-15T09:20:39Z</time>
      </trkpt>
      <trkpt lat="46.23694" lon="6.74751">
        <ele>1345</ele>
        <time>2025-03-15T09:20:53Z</time>
      </trkpt>
      <trkpt lat="46.23685" lon="6.74746">
        <ele>1347</ele>
        <time>2025-03-15T09:21:07Z</time>
      </trkpt>
      <trkpt lat="46.23676" lon="6.74745">
        <ele>1348</ele>
        <time>2025-03-15T09:21:23Z</time>
      </trkpt>
      <trkpt lat="46.23667" lon="6.7474">
        <ele>1348</ele>
        <time>2025-03-15T09:21:37Z</time>
      </trkpt>
      <trkpt lat="46.23662" lon="6.74728">
        <ele>1350</ele>
        <time>2025-03-15T09:21:53Z</time>
      </trkpt>
      <trkpt lat="46.23659" lon="6.74715">
        <ele>1353</ele>
        <time>2025-03-15T09:22:09Z</time>
      </trkpt>
      <trkpt lat="46.23641" lon="6.74684">
        <ele>1356</ele>
        <time>2025-03-15T09:22:49Z</time>
      </trkpt>
      <trkpt lat="46.23635" lon="6.74673">
        <ele>1360</ele>
        <time>2025-03-15T09:23:07Z</time>
      </trkpt>
      <trkpt lat="46.2363" lon="6.74661">
        <ele>1362</ele>
        <time>2025-03-15T09:23:23Z</time>
      </trkpt>
      <trkpt lat="46.23625" lon="6.74635">
        <ele>1368</ele>
        <time>2025-03-15T09:23:55Z</time>
      </trkpt>
      <trkpt lat="46.23623" lon="6.7463">
        <ele>1366</ele>
        <time>2025-03-15T09:24:05Z</time>
      </trkpt>
      <trkpt lat="46.23625" lon="6.74624">
        <ele>1366</ele>
        <time>2025-03-15T09:24:11Z</time>
      </trkpt>
      <trkpt lat="46.23623" lon="6.74619">
        <ele>1370</ele>
        <time>2025-03-15T09:24:19Z</time>
      </trkpt>
      <trkpt lat="46.2362" lon="6.74614">
        <ele>1371</ele>
        <time>2025-03-15T09:24:25Z</time>
      </trkpt>
      <trkpt lat="46.23617" lon="6.7461">
        <ele>1375</ele>
        <time>2025-03-15T09:24:33Z</time>
      </trkpt>
      <trkpt lat="46.23613" lon="6.74606">
        <ele>1376</ele>
        <time>2025-03-15T09:24:39Z</time>
      </trkpt>
      <trkpt lat="46.23593" lon="6.74594">
        <ele>1379</ele>
        <time>2025-03-15T09:25:11Z</time>
      </trkpt>
      <trkpt lat="46.23586" lon="6.74585">
        <ele>1383</ele>
        <time>2025-03-15T09:25:33Z</time>
      </trkpt>
      <trkpt lat="46.23578" lon="6.74582">
        <ele>1384</ele>
        <time>2025-03-15T09:25:49Z</time>
      </trkpt>
      <trkpt lat="46.23559" lon="6.74578">
        <ele>1387</ele>
        <time>2025-03-15T09:26:21Z</time>
      </trkpt>
      <trkpt lat="46.23549" lon="6.74578">
        <ele>1390</ele>
        <time>2025-03-15T09:26:39Z</time>
      </trkpt>
      <trkpt lat="46.23539" lon="6.7458">
        <ele>1392</ele>
        <time>2025-03-15T09:26:57Z</time>
      </trkpt>
      <trkpt lat="46.2353" lon="6.74583">
        <ele>1396</ele>
        <time>2025-03-15T09:27:27Z</time>
      </trkpt>
      <trkpt lat="46.23521" lon="6.74581">
        <ele>1397</ele>
        <time>2025-03-15T09:27:47Z</time>
      </trkpt>
      <trkpt lat="46.23514" lon="6.74573">
        <ele>1400</ele>
        <time>2025-03-15T09:28:10Z</time>
      </trkpt>
      <trkpt lat="46.23506" lon="6.74565">
        <ele>1401</ele>
        <time>2025-03-15T09:28:30Z</time>
      </trkpt>
      <trkpt lat="46.23491" lon="6.7455">
        <ele>1407</ele>
        <time>2025-03-15T09:29:08Z</time>
      </trkpt>
      <trkpt lat="46.2348" lon="6.74527">
        <ele>1412</ele>
        <time>2025-03-15T09:29:48Z</time>
      </trkpt>
      <trkpt lat="46.23467" lon="6.74509">
        <ele>1415</ele>
        <time>2025-03-15T09:30:22Z</time>
      </trkpt>
      <trkpt lat="46.23461" lon="6.74498">
        <ele>1418</ele>
        <time>2025-03-15T09:30:38Z</time>
      </trkpt>
      <trkpt lat="46.23454" lon="6.7449">
        <ele>1420</ele>
        <time>2025-03-15T09:30:56Z</time>
      </trkpt>
      <trkpt lat="46.23445" lon="6.74494">
        <ele>1427</ele>
        <time>2025-03-15T09:31:28Z</time>
      </trkpt>
      <trkpt lat="46.2344" lon="6.74506">
        <ele>1429</ele>
        <time>2025-03-15T09:31:44Z</time>
      </trkpt>
      <trkpt lat="46.23434" lon="6.74517">
        <ele>1432</ele>
        <time>2025-03-15T09:32:04Z</time>
      </trkpt>
      <trkpt lat="46.23427" lon="6.74525">
        <ele>1435</ele>
        <time>2025-03-15T09:32:44Z</time>
      </trkpt>
      <trkpt lat="46.23423" lon="6.74537">
        <ele>1437</ele>
        <time>2025-03-15T09:33:04Z</time>
      </trkpt>
      <trkpt lat="46.2342" lon="6.74551">
        <ele>1441</ele>
        <time>2025-03-15T09:33:18Z</time>
      </trkpt>
      <trkpt lat="46.23417" lon="6.74562">
        <ele>1443</ele>
        <time>2025-03-15T09:33:32Z</time>
      </trkpt>
      <trkpt lat="46.23411" lon="6.74588">
        <ele>1447</ele>
        <time>2025-03-15T09:34:06Z</time>
      </trkpt>
      <trkpt lat="46.2341" lon="6.74601">
        <ele>1450</ele>
        <time>2025-03-15T09:34:20Z</time>
      </trkpt>
      <trkpt lat="46.2341" lon="6.74616">
        <ele>1453</ele>
        <time>2025-03-15T09:34:36Z</time>
      </trkpt>
      <trkpt lat="46.23412" lon="6.7463">
        <ele>1455</ele>
        <time>2025-03-15T09:34:52Z</time>
      </trkpt>
      <trkpt lat="46.23415" lon="6.74642">
        <ele>1456</ele>
        <time>2025-03-15T09:35:04Z</time>
      </trkpt>
      <trkpt lat="46.23407" lon="6.74648">
        <ele>1458</ele>
        <time>2025-03-15T09:35:36Z</time>
      </trkpt>
      <trkpt lat="46.2339" lon="6.74618">
        <ele>1460</ele>
        <time>2025-03-15T09:36:12Z</time>
      </trkpt>
      <trkpt lat="46.23386" lon="6.74605">
        <ele>1461</ele>
        <time>2025-03-15T09:36:28Z</time>
      </trkpt>
      <trkpt lat="46.23373" lon="6.74584">
        <ele>1465</ele>
        <time>2025-03-15T09:37:02Z</time>
      </trkpt>
      <trkpt lat="46.23366" lon="6.74574">
        <ele>1468</ele>
        <time>2025-03-15T09:37:22Z</time>
      </trkpt>
      <trkpt lat="46.23359" lon="6.74565">
        <ele>1470</ele>
        <time>2025-03-15T09:37:38Z</time>
      </trkpt>
      <trkpt lat="46.23354" lon="6.74553">
        <ele>1475</ele>
        <time>2025-03-15T09:38:18Z</time>
      </trkpt>
      <trkpt lat="46.23349" lon="6.74542">
        <ele>1476</ele>
        <time>2025-03-15T09:38:32Z</time>
      </trkpt>
      <trkpt lat="46.23339" lon="6.74518">
        <ele>1479</ele>
        <time>2025-03-15T09:39:02Z</time>
      </trkpt>
      <trkpt lat="46.23336" lon="6.74505">
        <ele>1481</ele>
        <time>2025-03-15T09:39:18Z</time>
      </trkpt>
      <trkpt lat="46.23333" lon="6.74493">
        <ele>1482</ele>
        <time>2025-03-15T09:39:36Z</time>
      </trkpt>
      <trkpt lat="46.23328" lon="6.74481">
        <ele>1485</ele>
        <time>2025-03-15T09:39:54Z</time>
      </trkpt>
      <trkpt lat="46.23324" lon="6.74468">
        <ele>1487</ele>
        <time>2025-03-15T09:40:12Z</time>
      </trkpt>
      <trkpt lat="46.23321" lon="6.74456">
        <ele>1490</ele>
        <time>2025-03-15T09:40:30Z</time>
      </trkpt>
      <trkpt lat="46.23312" lon="6.74459">
        <ele>1492</ele>
        <time>2025-03-15T09:40:50Z</time>
      </trkpt>
      <trkpt lat="46.23308" lon="6.74473">
        <ele>1494</ele>
        <time>2025-03-15T09:41:06Z</time>
      </trkpt>
      <trkpt lat="46.23305" lon="6.74486">
        <ele>1500</ele>
        <time>2025-03-15T09:41:50Z</time>
      </trkpt>
      <trkpt lat="46.233" lon="6.74497">
        <ele>1501</ele>
        <time>2025-03-15T09:42:06Z</time>
      </trkpt>
      <trkpt lat="46.23295" lon="6.74508">
        <ele>1506</ele>
        <time>2025-03-15T09:42:24Z</time>
      </trkpt>
      <trkpt lat="46.23291" lon="6.74519">
        <ele>1509</ele>
        <time>2025-03-15T09:43:04Z</time>
      </trkpt>
      <trkpt lat="46.23283" lon="6.74545">
        <ele>1515</ele>
        <time>2025-03-15T09:43:42Z</time>
      </trkpt>
      <trkpt lat="46.23276" lon="6.74548">
        <ele>1521</ele>
        <time>2025-03-15T09:44:52Z</time>
      </trkpt>
      <trkpt lat="46.23271" lon="6.74535">
        <ele>1521</ele>
        <time>2025-03-15T09:45:08Z</time>
      </trkpt>
      <trkpt lat="46.23271" lon="6.7452">
        <ele>1523</ele>
        <time>2025-03-15T09:45:27Z</time>
      </trkpt>
      <trkpt lat="46.23261" lon="6.74504">
        <ele>1528</ele>
        <time>2025-03-15T09:45:56Z</time>
      </trkpt>
      <trkpt lat="46.23256" lon="6.7449">
        <ele>1530</ele>
        <time>2025-03-15T09:46:14Z</time>
      </trkpt>
      <trkpt lat="46.23253" lon="6.74486">
        <ele>1530</ele>
        <time>2025-03-15T09:46:22Z</time>
      </trkpt>
      <trkpt lat="46.23246" lon="6.74477">
        <ele>1533</ele>
        <time>2025-03-15T09:46:50Z</time>
      </trkpt>
      <trkpt lat="46.23239" lon="6.74468">
        <ele>1535</ele>
        <time>2025-03-15T09:47:10Z</time>
      </trkpt>
      <trkpt lat="46.23227" lon="6.74448">
        <ele>1541</ele>
        <time>2025-03-15T09:47:52Z</time>
      </trkpt>
      <trkpt lat="46.23223" lon="6.74435">
        <ele>1545</ele>
        <time>2025-03-15T09:48:12Z</time>
      </trkpt>
      <trkpt lat="46.23219" lon="6.74423">
        <ele>1549</ele>
        <time>2025-03-15T09:48:34Z</time>
      </trkpt>
      <trkpt lat="46.23216" lon="6.74419">
        <ele>1551</ele>
        <time>2025-03-15T09:49:20Z</time>
      </trkpt>
      <trkpt lat="46.2321" lon="6.744">
        <ele>1556</ele>
        <time>2025-03-15T09:49:52Z</time>
      </trkpt>
      <trkpt lat="46.23203" lon="6.74384">
        <ele>1560</ele>
        <time>2025-03-15T09:50:22Z</time>
      </trkpt>
      <trkpt lat="46.23194" lon="6.74381">
        <ele>1563</ele>
        <time>2025-03-15T09:51:14Z</time>
      </trkpt>
      <trkpt lat="46.23188" lon="6.7439">
        <ele>1566</ele>
        <time>2025-03-15T09:51:32Z</time>
      </trkpt>
      <trkpt lat="46.23183" lon="6.74402">
        <ele>1568</ele>
        <time>2025-03-15T09:51:56Z</time>
      </trkpt>
      <trkpt lat="46.23176" lon="6.74394">
        <ele>1576</ele>
        <time>2025-03-15T09:52:52Z</time>
      </trkpt>
      <trkpt lat="46.2317" lon="6.74383">
        <ele>1580</ele>
        <time>2025-03-15T09:53:14Z</time>
      </trkpt>
      <trkpt lat="46.23173" lon="6.74376">
        <ele>1584</ele>
        <time>2025-03-15T09:54:05Z</time>
      </trkpt>
      <trkpt lat="46.23165" lon="6.74367">
        <ele>1590</ele>
        <time>2025-03-15T09:54:19Z</time>
      </trkpt>
      <trkpt lat="46.23155" lon="6.7435">
        <ele>1592</ele>
        <time>2025-03-15T09:54:47Z</time>
      </trkpt>
      <trkpt lat="46.23155" lon="6.74336">
        <ele>1594</ele>
        <time>2025-03-15T09:55:25Z</time>
      </trkpt>
      <trkpt lat="46.23152" lon="6.74335">
        <ele>1596</ele>
        <time>2025-03-15T09:56:37Z</time>
      </trkpt>
      <trkpt lat="46.23148" lon="6.74335">
        <ele>1594</ele>
        <time>2025-03-15T09:56:43Z</time>
      </trkpt>
      <trkpt lat="46.23145" lon="6.74338">
        <ele>1593</ele>
        <time>2025-03-15T09:56:47Z</time>
      </trkpt>
      <trkpt lat="46.23143" lon="6.74341">
        <ele>1592</ele>
        <time>2025-03-15T09:56:55Z</time>
      </trkpt>
      <trkpt lat="46.23137" lon="6.74349">
        <ele>1593</ele>
        <time>2025-03-15T09:57:07Z</time>
      </trkpt>
      <trkpt lat="46.23134" lon="6.74357">
        <ele>1596</ele>
        <time>2025-03-15T09:57:27Z</time>
      </trkpt>
      <trkpt lat="46.23132" lon="6.74362">
        <ele>1597</ele>
        <time>2025-03-15T09:57:33Z</time>
      </trkpt>
      <trkpt lat="46.23128" lon="6.74373">
        <ele>1599</ele>
        <time>2025-03-15T09:57:51Z</time>
      </trkpt>
      <trkpt lat="46.23121" lon="6.74364">
        <ele>1604</ele>
        <time>2025-03-15T09:58:37Z</time>
      </trkpt>
      <trkpt lat="46.23118" lon="6.74351">
        <ele>1606</ele>
        <time>2025-03-15T09:58:55Z</time>
      </trkpt>
      <trkpt lat="46.23116" lon="6.74339">
        <ele>1608</ele>
        <time>2025-03-15T09:59:15Z</time>
      </trkpt>
      <trkpt lat="46.23108" lon="6.74315">
        <ele>1612</ele>
        <time>2025-03-15T09:59:47Z</time>
      </trkpt>
      <trkpt lat="46.23099" lon="6.7429">
        <ele>1615</ele>
        <time>2025-03-15T10:00:21Z</time>
      </trkpt>
      <trkpt lat="46.23097" lon="6.74264">
        <ele>1619</ele>
        <time>2025-03-15T10:00:51Z</time>
      </trkpt>
      <trkpt lat="46.23105" lon="6.74236">
        <ele>1625</ele>
        <time>2025-03-15T10:01:25Z</time>
      </trkpt>
      <trkpt lat="46.23113" lon="6.74206">
        <ele>1628</ele>
        <time>2025-03-15T10:01:57Z</time>
      </trkpt>
      <trkpt lat="46.23113" lon="6.74195">
        <ele>1628</ele>
        <time>2025-03-15T10:02:09Z</time>
      </trkpt>
      <trkpt lat="46.23109" lon="6.74167">
        <ele>1627</ele>
        <time>2025-03-15T10:02:39Z</time>
      </trkpt>
      <trkpt lat="46.23105" lon="6.74158">
        <ele>1628</ele>
        <time>2025-03-15T10:02:53Z</time>
      </trkpt>
      <trkpt lat="46.23104" lon="6.74152">
        <ele>1628</ele>
        <time>2025-03-15T10:03:03Z</time>
      </trkpt>
      <trkpt lat="46.23105" lon="6.74146">
        <ele>1631</ele>
        <time>2025-03-15T10:03:11Z</time>
      </trkpt>
      <trkpt lat="46.23099" lon="6.74129">
        <ele>1632</ele>
        <time>2025-03-15T10:03:39Z</time>
      </trkpt>
      <trkpt lat="46.23099" lon="6.74102">
        <ele>1638</ele>
        <time>2025-03-15T10:04:21Z</time>
      </trkpt>
      <trkpt lat="46.231" lon="6.74073">
        <ele>1646</ele>
        <time>2025-03-15T10:04:57Z</time>
      </trkpt>
      <trkpt lat="46.231" lon="6.74069">
        <ele>1648</ele>
        <time>2025-03-15T10:05:05Z</time>
      </trkpt>
      <trkpt lat="46.23105" lon="6.74045">
        <ele>1653</ele>
        <time>2025-03-15T10:05:37Z</time>
      </trkpt>
      <trkpt lat="46.23107" lon="6.74039">
        <ele>1654</ele>
        <time>2025-03-15T10:06:09Z</time>
      </trkpt>
      <trkpt lat="46.23117" lon="6.74002">
        <ele>1656</ele>
        <time>2025-03-15T10:06:45Z</time>
      </trkpt>
      <trkpt lat="46.23126" lon="6.73962">
        <ele>1659</ele>
        <time>2025-03-15T10:07:25Z</time>
      </trkpt>
      <trkpt lat="46.23128" lon="6.7395">
        <ele>1661</ele>
        <time>2025-03-15T10:07:43Z</time>
      </trkpt>
      <trkpt lat="46.23132" lon="6.73936">
        <ele>1662</ele>
        <time>2025-03-15T10:07:59Z</time>
      </trkpt>
      <trkpt lat="46.23136" lon="6.73923">
        <ele>1665</ele>
        <time>2025-03-15T10:08:17Z</time>
      </trkpt>
      <trkpt lat="46.23142" lon="6.73912">
        <ele>1666</ele>
        <time>2025-03-15T10:09:10Z</time>
      </trkpt>
      <trkpt lat="46.23152" lon="6.73888">
        <ele>1672</ele>
        <time>2025-03-15T10:09:44Z</time>
      </trkpt>
      <trkpt lat="46.23159" lon="6.73879">
        <ele>1674</ele>
        <time>2025-03-15T10:10:00Z</time>
      </trkpt>
      <trkpt lat="46.23165" lon="6.73868">
        <ele>1676</ele>
        <time>2025-03-15T10:10:20Z</time>
      </trkpt>
      <trkpt lat="46.2317" lon="6.73857">
        <ele>1681</ele>
        <time>2025-03-15T10:10:40Z</time>
      </trkpt>
      <trkpt lat="46.23176" lon="6.73846">
        <ele>1683</ele>
        <time>2025-03-15T10:11:00Z</time>
      </trkpt>
      <trkpt lat="46.23187" lon="6.73824">
        <ele>1688</ele>
        <time>2025-03-15T10:11:44Z</time>
      </trkpt>
      <trkpt lat="46.23192" lon="6.73812">
        <ele>1692</ele>
        <time>2025-03-15T10:12:22Z</time>
      </trkpt>
      <trkpt lat="46.23199" lon="6.73803">
        <ele>1694</ele>
        <time>2025-03-15T10:12:44Z</time>
      </trkpt>
      <trkpt lat="46.23206" lon="6.73793">
        <ele>1699</ele>
        <time>2025-03-15T10:13:02Z</time>
      </trkpt>
      <trkpt lat="46.23215" lon="6.73788">
        <ele>1701</ele>
        <time>2025-03-15T10:13:20Z</time>
      </trkpt>
      <trkpt lat="46.23218" lon="6.738">
        <ele>1705</ele>
        <time>2025-03-15T10:13:46Z</time>
      </trkpt>
      <trkpt lat="46.23219" lon="6.73815">
        <ele>1708</ele>
        <time>2025-03-15T10:14:06Z</time>
      </trkpt>
      <trkpt lat="46.23223" lon="6.73828">
        <ele>1710</ele>
        <time>2025-03-15T10:14:24Z</time>
      </trkpt>
      <trkpt lat="46.23232" lon="6.7383">
        <ele>1710</ele>
        <time>2025-03-15T10:14:44Z</time>
      </trkpt>
      <trkpt lat="46.23237" lon="6.73819">
        <ele>1713</ele>
        <time>2025-03-15T10:14:58Z</time>
      </trkpt>
      <trkpt lat="46.23243" lon="6.73809">
        <ele>1715</ele>
        <time>2025-03-15T10:15:14Z</time>
      </trkpt>
      <trkpt lat="46.23247" lon="6.73821">
        <ele>1718</ele>
        <time>2025-03-15T10:15:46Z</time>
      </trkpt>
      <trkpt lat="46.23248" lon="6.73834">
        <ele>1720</ele>
        <time>2025-03-15T10:16:02Z</time>
      </trkpt>
      <trkpt lat="46.23247" lon="6.73848">
        <ele>1722</ele>
        <time>2025-03-15T10:16:20Z</time>
      </trkpt>
      <trkpt lat="46.23245" lon="6.73861">
        <ele>1724</ele>
        <time>2025-03-15T10:16:40Z</time>
      </trkpt>
      <trkpt lat="46.23246" lon="6.7389">
        <ele>1730</ele>
        <time>2025-03-15T10:17:14Z</time>
      </trkpt>
      <trkpt lat="46.23249" lon="6.73903">
        <ele>1732</ele>
        <time>2025-03-15T10:17:34Z</time>
      </trkpt>
      <trkpt lat="46.23253" lon="6.73914">
        <ele>1735</ele>
        <time>2025-03-15T10:20:44Z</time>
      </trkpt>
      <trkpt lat="46.23254" lon="6.73908">
        <ele>1737</ele>
        <time>2025-03-15T10:37:24Z</time>
      </trkpt>
      <trkpt lat="46.23253" lon="6.73904">
        <ele>1736</ele>
        <time>2025-03-15T10:37:30Z</time>
      </trkpt>
      <trkpt lat="46.23259" lon="6.73897">
        <ele>1737</ele>
        <time>2025-03-15T10:37:50Z</time>
      </trkpt>
      <trkpt lat="46.23271" lon="6.73891">
        <ele>1740</ele>
        <time>2025-03-15T10:38:08Z</time>
      </trkpt>
      <trkpt lat="46.23286" lon="6.7388">
        <ele>1743</ele>
        <time>2025-03-15T10:38:40Z</time>
      </trkpt>
      <trkpt lat="46.23291" lon="6.73869">
        <ele>1747</ele>
        <time>2025-03-15T10:39:06Z</time>
      </trkpt>
      <trkpt lat="46.23294" lon="6.73857">
        <ele>1749</ele>
        <time>2025-03-15T10:39:34Z</time>
      </trkpt>
      <trkpt lat="46.23296" lon="6.73844">
        <ele>1753</ele>
        <time>2025-03-15T10:39:56Z</time>
      </trkpt>
      <trkpt lat="46.23305" lon="6.73844">
        <ele>1756</ele>
        <time>2025-03-15T10:40:20Z</time>
      </trkpt>
      <trkpt lat="46.23323" lon="6.73835">
        <ele>1761</ele>
        <time>2025-03-15T10:40:58Z</time>
      </trkpt>
      <trkpt lat="46.23332" lon="6.73832">
        <ele>1764</ele>
        <time>2025-03-15T10:41:14Z</time>
      </trkpt>
      <trkpt lat="46.2334" lon="6.73824">
        <ele>1766</ele>
        <time>2025-03-15T10:41:32Z</time>
      </trkpt>
      <trkpt lat="46.23353" lon="6.73799">
        <ele>1770</ele>
        <time>2025-03-15T10:42:08Z</time>
      </trkpt>
      <trkpt lat="46.23357" lon="6.73788">
        <ele>1773</ele>
        <time>2025-03-15T10:42:24Z</time>
      </trkpt>
      <trkpt lat="46.23359" lon="6.73784">
        <ele>1773</ele>
        <time>2025-03-15T10:42:32Z</time>
      </trkpt>
      <trkpt lat="46.23362" lon="6.73781">
        <ele>1774</ele>
        <time>2025-03-15T10:42:38Z</time>
      </trkpt>
      <trkpt lat="46.23369" lon="6.73776">
        <ele>1776</ele>
        <time>2025-03-15T10:42:52Z</time>
      </trkpt>
      <trkpt lat="46.23383" lon="6.73776">
        <ele>1778</ele>
        <time>2025-03-15T10:43:14Z</time>
      </trkpt>
      <trkpt lat="46.23392" lon="6.73769">
        <ele>1779</ele>
        <time>2025-03-15T10:43:28Z</time>
      </trkpt>
      <trkpt lat="46.23401" lon="6.73764">
        <ele>1780</ele>
        <time>2025-03-15T10:43:40Z</time>
      </trkpt>
      <trkpt lat="46.23408" lon="6.73757">
        <ele>1782</ele>
        <time>2025-03-15T10:43:54Z</time>
      </trkpt>
      <trkpt lat="46.23417" lon="6.73751">
        <ele>1782</ele>
        <time>2025-03-15T10:44:06Z</time>
      </trkpt>
      <trkpt lat="46.23447" lon="6.73759">
        <ele>1783</ele>
        <time>2025-03-15T10:44:40Z</time>
      </trkpt>
      <trkpt lat="46.23457" lon="6.73762">
        <ele>1784</ele>
        <time>2025-03-15T10:44:52Z</time>
      </trkpt>
      <trkpt lat="46.23466" lon="6.73764">
        <ele>1785</ele>
        <time>2025-03-15T10:45:04Z</time>
      </trkpt>
      <trkpt lat="46.23476" lon="6.7376">
        <ele>1787</ele>
        <time>2025-03-15T10:45:16Z</time>
      </trkpt>
      <trkpt lat="46.23494" lon="6.73756">
        <ele>1788</ele>
        <time>2025-03-15T10:45:38Z</time>
      </trkpt>
      <trkpt lat="46.23502" lon="6.73764">
        <ele>1789</ele>
        <time>2025-03-15T10:45:52Z</time>
      </trkpt>
      <trkpt lat="46.23512" lon="6.73766">
        <ele>1792</ele>
        <time>2025-03-15T10:46:06Z</time>
      </trkpt>
      <trkpt lat="46.23532" lon="6.7376">
        <ele>1794</ele>
        <time>2025-03-15T10:46:36Z</time>
      </trkpt>
      <trkpt lat="46.23541" lon="6.73757">
        <ele>1795</ele>
        <time>2025-03-15T10:46:54Z</time>
      </trkpt>
      <trkpt lat="46.23548" lon="6.73748">
        <ele>1797</ele>
        <time>2025-03-15T10:47:14Z</time>
      </trkpt>
      <trkpt lat="46.23557" lon="6.73743">
        <ele>1800</ele>
        <time>2025-03-15T10:47:34Z</time>
      </trkpt>
      <trkpt lat="46.23576" lon="6.7374">
        <ele>1804</ele>
        <time>2025-03-15T10:48:06Z</time>
      </trkpt>
      <trkpt lat="46.23585" lon="6.7374">
        <ele>1806</ele>
        <time>2025-03-15T10:48:22Z</time>
      </trkpt>
      <trkpt lat="46.23594" lon="6.73745">
        <ele>1809</ele>
        <time>2025-03-15T10:48:42Z</time>
      </trkpt>
      <trkpt lat="46.23603" lon="6.73743">
        <ele>1811</ele>
        <time>2025-03-15T10:49:00Z</time>
      </trkpt>
      <trkpt lat="46.23621" lon="6.73733">
        <ele>1815</ele>
        <time>2025-03-15T10:49:28Z</time>
      </trkpt>
      <trkpt lat="46.23639" lon="6.73729">
        <ele>1817</ele>
        <time>2025-03-15T10:49:58Z</time>
      </trkpt>
      <trkpt lat="46.23648" lon="6.73716">
        <ele>1820</ele>
        <time>2025-03-15T10:51:58Z</time>
      </trkpt>
      <trkpt lat="46.23654" lon="6.73702">
        <ele>1822</ele>
        <time>2025-03-15T10:52:18Z</time>
      </trkpt>
      <trkpt lat="46.23657" lon="6.73697">
        <ele>1823</ele>
        <time>2025-03-15T10:52:24Z</time>
      </trkpt>
      <trkpt lat="46.23671" lon="6.73674">
        <ele>1823</ele>
        <time>2025-03-15T10:52:54Z</time>
      </trkpt>
      <trkpt lat="46.23674" lon="6.73671">
        <ele>1824</ele>
        <time>2025-03-15T10:52:58Z</time>
      </trkpt>
      <trkpt lat="46.23681" lon="6.73662">
        <ele>1824</ele>
        <time>2025-03-15T10:53:10Z</time>
      </trkpt>
      <trkpt lat="46.23683" lon="6.73658">
        <ele>1824</ele>
        <time>2025-03-15T10:53:18Z</time>
      </trkpt>
      <trkpt lat="46.23689" lon="6.73648">
        <ele>1824</ele>
        <time>2025-03-15T10:53:30Z</time>
      </trkpt>
      <trkpt lat="46.23693" lon="6.73645">
        <ele>1824</ele>
        <time>2025-03-15T10:53:36Z</time>
      </trkpt>
      <trkpt lat="46.23698" lon="6.73643">
        <ele>1825</ele>
        <time>2025-03-15T10:53:42Z</time>
      </trkpt>
      <trkpt lat="46.23702" lon="6.73643">
        <ele>1826</ele>
        <time>2025-03-15T10:53:50Z</time>
      </trkpt>
      <trkpt lat="46.23709" lon="6.73663">
        <ele>1831</ele>
        <time>2025-03-15T10:54:19Z</time>
      </trkpt>
      <trkpt lat="46.2371" lon="6.73669">
        <ele>1831</ele>
        <time>2025-03-15T10:54:25Z</time>
      </trkpt>
      <trkpt lat="46.23709" lon="6.73674">
        <ele>1832</ele>
        <time>2025-03-15T10:54:33Z</time>
      </trkpt>
      <trkpt lat="46.2371" lon="6.73679">
        <ele>1832</ele>
        <time>2025-03-15T10:54:41Z</time>
      </trkpt>
      <trkpt lat="46.23713" lon="6.73682">
        <ele>1832</ele>
        <time>2025-03-15T10:54:49Z</time>
      </trkpt>
      <trkpt lat="46.23716" lon="6.73686">
        <ele>1833</ele>
        <time>2025-03-15T10:55:29Z</time>
      </trkpt>
      <trkpt lat="46.23719" lon="6.73689">
        <ele>1836</ele>
        <time>2025-03-15T10:55:35Z</time>
      </trkpt>
      <trkpt lat="46.2374" lon="6.73689">
        <ele>1841</ele>
        <time>2025-03-15T10:56:05Z</time>
      </trkpt>
      <trkpt lat="46.23744" lon="6.7369">
        <ele>1841</ele>
        <time>2025-03-15T10:56:11Z</time>
      </trkpt>
      <trkpt lat="46.23763" lon="6.73684">
        <ele>1844</ele>
        <time>2025-03-15T10:56:41Z</time>
      </trkpt>
      <trkpt lat="46.23782" lon="6.7368">
        <ele>1846</ele>
        <time>2025-03-15T10:57:19Z</time>
      </trkpt>
      <trkpt lat="46.2378" lon="6.73666">
        <ele>1848</ele>
        <time>2025-03-15T10:57:45Z</time>
      </trkpt>
      <trkpt lat="46.23777" lon="6.73653">
        <ele>1853</ele>
        <time>2025-03-15T10:58:07Z</time>
      </trkpt>
      <trkpt lat="46.23779" lon="6.73648">
        <ele>1854</ele>
        <time>2025-03-15T10:58:13Z</time>
      </trkpt>
      <trkpt lat="46.23789" lon="6.73636">
        <ele>1856</ele>
        <time>2025-03-15T10:58:33Z</time>
      </trkpt>
      <trkpt lat="46.23807" lon="6.73631">
        <ele>1860</ele>
        <time>2025-03-15T10:59:03Z</time>
      </trkpt>
      <trkpt lat="46.23826" lon="6.73625">
        <ele>1864</ele>
        <time>2025-03-15T10:59:41Z</time>
      </trkpt>
      <trkpt lat="46.23842" lon="6.73621">
        <ele>1867</ele>
        <time>2025-03-15T11:00:13Z</time>
      </trkpt>
      <trkpt lat="46.23854" lon="6.73618">
        <ele>1870</ele>
        <time>2025-03-15T11:00:37Z</time>
      </trkpt>
      <trkpt lat="46.23873" lon="6.73611">
        <ele>1873</ele>
        <time>2025-03-15T11:01:05Z</time>
      </trkpt>
      <trkpt lat="46.23888" lon="6.73593">
        <ele>1876</ele>
        <time>2025-03-15T11:01:39Z</time>
      </trkpt>
      <trkpt lat="46.23902" lon="6.73575">
        <ele>1880</ele>
        <time>2025-03-15T11:02:15Z</time>
      </trkpt>
      <trkpt lat="46.23908" lon="6.73567">
        <ele>1883</ele>
        <time>2025-03-15T11:02:35Z</time>
      </trkpt>
      <trkpt lat="46.23911" lon="6.73562">
        <ele>1885</ele>
        <time>2025-03-15T11:05:11Z</time>
      </trkpt>
      <trkpt lat="46.23915" lon="6.73558">
        <ele>1886</ele>
        <time>2025-03-15T11:05:19Z</time>
      </trkpt>
      <trkpt lat="46.2393" lon="6.73548">
        <ele>1889</ele>
        <time>2025-03-15T11:05:51Z</time>
      </trkpt>
      <trkpt lat="46.23937" lon="6.73544">
        <ele>1891</ele>
        <time>2025-03-15T11:06:05Z</time>
      </trkpt>
      <trkpt lat="46.2395" lon="6.73537">
        <ele>1892</ele>
        <time>2025-03-15T11:06:27Z</time>
      </trkpt>
      <trkpt lat="46.23968" lon="6.73537">
        <ele>1895</ele>
        <time>2025-03-15T11:07:01Z</time>
      </trkpt>
      <trkpt lat="46.23977" lon="6.7354">
        <ele>1898</ele>
        <time>2025-03-15T11:07:17Z</time>
      </trkpt>
      <trkpt lat="46.23985" lon="6.73545">
        <ele>1900</ele>
        <time>2025-03-15T11:07:57Z</time>
      </trkpt>
      <trkpt lat="46.23992" lon="6.73554">
        <ele>1903</ele>
        <time>2025-03-15T11:08:33Z</time>
      </trkpt>
      <trkpt lat="46.24002" lon="6.73558">
        <ele>1904</ele>
        <time>2025-03-15T11:08:54Z</time>
      </trkpt>
      <trkpt lat="46.2401" lon="6.73564">
        <ele>1907</ele>
        <time>2025-03-15T11:09:12Z</time>
      </trkpt>
      <trkpt lat="46.24019" lon="6.73559">
        <ele>1910</ele>
        <time>2025-03-15T11:09:42Z</time>
      </trkpt>
      <trkpt lat="46.24022" lon="6.73546">
        <ele>1916</ele>
        <time>2025-03-15T11:10:00Z</time>
      </trkpt>
      <trkpt lat="46.24031" lon="6.73545">
        <ele>1920</ele>
        <time>2025-03-15T11:10:38Z</time>
      </trkpt>
      <trkpt lat="46.24033" lon="6.7355">
        <ele>1921</ele>
        <time>2025-03-15T11:10:48Z</time>
      </trkpt>
      <trkpt lat="46.2404" lon="6.73565">
        <ele>1924</ele>
        <time>2025-03-15T11:11:16Z</time>
      </trkpt>
      <trkpt lat="46.24043" lon="6.73564">
        <ele>1925</ele>
        <time>2025-03-15T11:11:32Z</time>
      </trkpt>
      <trkpt lat="46.2405" lon="6.73554">
        <ele>1926</ele>
        <time>2025-03-15T11:11:52Z</time>
      </trkpt>
      <trkpt lat="46.24055" lon="6.73546">
        <ele>1929</ele>
        <time>2025-03-15T11:12:06Z</time>
      </trkpt>
      <trkpt lat="46.24057" lon="6.73542">
        <ele>1930</ele>
        <time>2025-03-15T11:12:14Z</time>
      </trkpt>
      <trkpt lat="46.24059" lon="6.73547">
        <ele>1931</ele>
        <time>2025-03-15T11:12:26Z</time>
      </trkpt>
      <trkpt lat="46.24062" lon="6.73557">
        <ele>1933</ele>
        <time>2025-03-15T11:12:40Z</time>
      </trkpt>
      <trkpt lat="46.24064" lon="6.73563">
        <ele>1934</ele>
        <time>2025-03-15T11:12:50Z</time>
      </trkpt>
      <trkpt lat="46.24067" lon="6.73565">
        <ele>1934</ele>
        <time>2025-03-15T11:13:02Z</time>
      </trkpt>
      <trkpt lat="46.2407" lon="6.73561">
        <ele>1935</ele>
        <time>2025-03-15T11:13:10Z</time>
      </trkpt>
      <trkpt lat="46.24075" lon="6.73573">
        <ele>1939</ele>
        <time>2025-03-15T11:13:42Z</time>
      </trkpt>
      <trkpt lat="46.24078" lon="6.73585">
        <ele>1942</ele>
        <time>2025-03-15T11:14:02Z</time>
      </trkpt>
      <trkpt lat="46.24082" lon="6.73598">
        <ele>1944</ele>
        <time>2025-03-15T11:14:26Z</time>
      </trkpt>
      <trkpt lat="46.24086" lon="6.73611">
        <ele>1949</ele>
        <time>2025-03-15T11:14:54Z</time>
      </trkpt>
      <trkpt lat="46.24083" lon="6.73624">
        <ele>1951</ele>
        <time>2025-03-15T11:15:26Z</time>
      </trkpt>
      <trkpt lat="46.24096" lon="6.73642">
        <ele>1957</ele>
        <time>2025-03-15T11:16:08Z</time>
      </trkpt>
      <trkpt lat="46.241" lon="6.73644">
        <ele>1959</ele>
        <time>2025-03-15T11:17:22Z</time>
      </trkpt>
      <trkpt lat="46.24104" lon="6.73644">
        <ele>1960</ele>
        <time>2025-03-15T11:17:30Z</time>
      </trkpt>
      <trkpt lat="46.24108" lon="6.73645">
        <ele>1962</ele>
        <time>2025-03-15T11:17:36Z</time>
      </trkpt>
      <trkpt lat="46.24131" lon="6.73653">
        <ele>1963</ele>
        <time>2025-03-15T11:18:26Z</time>
      </trkpt>
      <trkpt lat="46.2415" lon="6.73658">
        <ele>1964</ele>
        <time>2025-03-15T11:19:02Z</time>
      </trkpt>
      <trkpt lat="46.24158" lon="6.73665">
        <ele>1967</ele>
        <time>2025-03-15T11:19:18Z</time>
      </trkpt>
      <trkpt lat="46.24167" lon="6.73667">
        <ele>1967</ele>
        <time>2025-03-15T11:20:18Z</time>
      </trkpt>
      <trkpt lat="46.24173" lon="6.73668">
        <ele>1970</ele>
        <time>2025-03-15T11:21:02Z</time>
      </trkpt>
      <trkpt lat="46.24178" lon="6.73669">
        <ele>1970</ele>
        <time>2025-03-15T11:23:44Z</time>
      </trkpt>
      <trkpt lat="46.24201" lon="6.73663">
        <ele>1970</ele>
        <time>2025-03-15T11:24:06Z</time>
      </trkpt>
      <trkpt lat="46.24197" lon="6.73667">
        <ele>1970</ele>
        <time>2025-03-15T12:04:44Z</time>
      </trkpt>
      <trkpt lat="46.24176" lon="6.73668">
        <ele>1970</ele>
        <time>2025-03-15T12:05:18Z</time>
      </trkpt>
      <trkpt lat="46.24167" lon="6.73668">
        <ele>1970</ele>
        <time>2025-03-15T12:05:30Z</time>
      </trkpt>
      <trkpt lat="46.24157" lon="6.73663">
        <ele>1970</ele>
        <time>2025-03-15T12:05:38Z</time>
      </trkpt>
      <trkpt lat="46.24148" lon="6.73656">
        <ele>1968</ele>
        <time>2025-03-15T12:05:42Z</time>
      </trkpt>
      <trkpt lat="46.24143" lon="6.73653">
        <ele>1967</ele>
        <time>2025-03-15T12:05:44Z</time>
      </trkpt>
      <trkpt lat="46.24139" lon="6.73653">
        <ele>1966</ele>
        <time>2025-03-15T12:05:46Z</time>
      </trkpt>
      <trkpt lat="46.24128" lon="6.73644">
        <ele>1963</ele>
        <time>2025-03-15T12:05:55Z</time>
      </trkpt>
      <trkpt lat="46.24117" lon="6.73636">
        <ele>1960</ele>
        <time>2025-03-15T12:05:57Z</time>
      </trkpt>
      <trkpt lat="46.2408" lon="6.73596">
        <ele>1952</ele>
        <time>2025-03-15T12:06:07Z</time>
      </trkpt>
      <trkpt lat="46.24074" lon="6.73588">
        <ele>1949</ele>
        <time>2025-03-15T12:06:51Z</time>
      </trkpt>
      <trkpt lat="46.24073" lon="6.73577">
        <ele>1947</ele>
        <time>2025-03-15T12:06:53Z</time>
      </trkpt>
      <trkpt lat="46.24069" lon="6.73563">
        <ele>1944</ele>
        <time>2025-03-15T12:06:55Z</time>
      </trkpt>
      <trkpt lat="46.24065" lon="6.73549">
        <ele>1942</ele>
        <time>2025-03-15T12:06:57Z</time>
      </trkpt>
      <trkpt lat="46.24063" lon="6.73536">
        <ele>1940</ele>
        <time>2025-03-15T12:06:59Z</time>
      </trkpt>
      <trkpt lat="46.24059" lon="6.73521">
        <ele>1939</ele>
        <time>2025-03-15T12:07:03Z</time>
      </trkpt>
      <trkpt lat="46.24044" lon="6.73509">
        <ele>1936</ele>
        <time>2025-03-15T12:07:31Z</time>
      </trkpt>
      <trkpt lat="46.2404" lon="6.73505">
        <ele>1936</ele>
        <time>2025-03-15T12:07:35Z</time>
      </trkpt>
      <trkpt lat="46.24033" lon="6.73509">
        <ele>1932</ele>
        <time>2025-03-15T12:08:29Z</time>
      </trkpt>
      <trkpt lat="46.24033" lon="6.7352">
        <ele>1929</ele>
        <time>2025-03-15T12:08:31Z</time>
      </trkpt>
      <trkpt lat="46.24037" lon="6.73533">
        <ele>1927</ele>
        <time>2025-03-15T12:08:33Z</time>
      </trkpt>
      <trkpt lat="46.24037" lon="6.73546">
        <ele>1925</ele>
        <time>2025-03-15T12:08:35Z</time>
      </trkpt>
      <trkpt lat="46.24032" lon="6.73542">
        <ele>1924</ele>
        <time>2025-03-15T12:08:37Z</time>
      </trkpt>
      <trkpt lat="46.24026" lon="6.73544">
        <ele>1922</ele>
        <time>2025-03-15T12:08:39Z</time>
      </trkpt>
      <trkpt lat="46.24022" lon="6.73548">
        <ele>1920</ele>
        <time>2025-03-15T12:08:41Z</time>
      </trkpt>
      <trkpt lat="46.24019" lon="6.73545">
        <ele>1917</ele>
        <time>2025-03-15T12:08:49Z</time>
      </trkpt>
      <trkpt lat="46.24014" lon="6.73543">
        <ele>1916</ele>
        <time>2025-03-15T12:08:51Z</time>
      </trkpt>
      <trkpt lat="46.24008" lon="6.73546">
        <ele>1912</ele>
        <time>2025-03-15T12:08:53Z</time>
      </trkpt>
      <trkpt lat="46.24003" lon="6.73547">
        <ele>1910</ele>
        <time>2025-03-15T12:08:55Z</time>
      </trkpt>
      <trkpt lat="46.23999" lon="6.73553">
        <ele>1908</ele>
        <time>2025-03-15T12:08:57Z</time>
      </trkpt>
      <trkpt lat="46.23994" lon="6.73543">
        <ele>1905</ele>
        <time>2025-03-15T12:08:59Z</time>
      </trkpt>
      <trkpt lat="46.23986" lon="6.73546">
        <ele>1903</ele>
        <time>2025-03-15T12:09:01Z</time>
      </trkpt>
      <trkpt lat="46.2398" lon="6.73544">
        <ele>1901</ele>
        <time>2025-03-15T12:09:03Z</time>
      </trkpt>
      <trkpt lat="46.23974" lon="6.73537">
        <ele>1898</ele>
        <time>2025-03-15T12:09:05Z</time>
      </trkpt>
      <trkpt lat="46.23968" lon="6.73539">
        <ele>1897</ele>
        <time>2025-03-15T12:09:07Z</time>
      </trkpt>
      <trkpt lat="46.23962" lon="6.7354">
        <ele>1896</ele>
        <time>2025-03-15T12:09:09Z</time>
      </trkpt>
      <trkpt lat="46.23947" lon="6.73534">
        <ele>1893</ele>
        <time>2025-03-15T12:09:13Z</time>
      </trkpt>
      <trkpt lat="46.23939" lon="6.73536">
        <ele>1891</ele>
        <time>2025-03-15T12:09:15Z</time>
      </trkpt>
      <trkpt lat="46.23928" lon="6.73539">
        <ele>1890</ele>
        <time>2025-03-15T12:09:43Z</time>
      </trkpt>
      <trkpt lat="46.23913" lon="6.7355">
        <ele>1886</ele>
        <time>2025-03-15T12:09:47Z</time>
      </trkpt>
      <trkpt lat="46.23901" lon="6.73564">
        <ele>1883</ele>
        <time>2025-03-15T12:09:51Z</time>
      </trkpt>
      <trkpt lat="46.23899" lon="6.73561">
        <ele>1881</ele>
        <time>2025-03-15T12:11:25Z</time>
      </trkpt>
      <trkpt lat="46.23896" lon="6.73556">
        <ele>1884</ele>
        <time>2025-03-15T12:13:05Z</time>
      </trkpt>
      <trkpt lat="46.23893" lon="6.73553">
        <ele>1885</ele>
        <time>2025-03-15T12:13:15Z</time>
      </trkpt>
      <trkpt lat="46.2389" lon="6.73549">
        <ele>1885</ele>
        <time>2025-03-15T12:13:23Z</time>
      </trkpt>
      <trkpt lat="46.23889" lon="6.73544">
        <ele>1885</ele>
        <time>2025-03-15T12:13:29Z</time>
      </trkpt>
      <trkpt lat="46.23888" lon="6.73538">
        <ele>1884</ele>
        <time>2025-03-15T12:13:33Z</time>
      </trkpt>
      <trkpt lat="46.23896" lon="6.7351">
        <ele>1880</ele>
        <time>2025-03-15T12:13:47Z</time>
      </trkpt>
      <trkpt lat="46.23903" lon="6.73497">
        <ele>1878</ele>
        <time>2025-03-15T12:13:51Z</time>
      </trkpt>
      <trkpt lat="46.23905" lon="6.73494">
        <ele>1878</ele>
        <time>2025-03-15T12:13:55Z</time>
      </trkpt>
      <trkpt lat="46.23908" lon="6.73477">
        <ele>1875</ele>
        <time>2025-03-15T12:14:05Z</time>
      </trkpt>
      <trkpt lat="46.23908" lon="6.73471">
        <ele>1874</ele>
        <time>2025-03-15T12:14:07Z</time>
      </trkpt>
      <trkpt lat="46.23905" lon="6.73464">
        <ele>1873</ele>
        <time>2025-03-15T12:14:09Z</time>
      </trkpt>
      <trkpt lat="46.239" lon="6.73456">
        <ele>1871</ele>
        <time>2025-03-15T12:14:11Z</time>
      </trkpt>
      <trkpt lat="46.23898" lon="6.73448">
        <ele>1870</ele>
        <time>2025-03-15T12:14:13Z</time>
      </trkpt>
      <trkpt lat="46.23896" lon="6.73443">
        <ele>1869</ele>
        <time>2025-03-15T12:14:27Z</time>
      </trkpt>
      <trkpt lat="46.23889" lon="6.73445">
        <ele>1867</ele>
        <time>2025-03-15T12:14:29Z</time>
      </trkpt>
      <trkpt lat="46.23888" lon="6.73452">
        <ele>1866</ele>
        <time>2025-03-15T12:14:31Z</time>
      </trkpt>
      <trkpt lat="46.23887" lon="6.73459">
        <ele>1865</ele>
        <time>2025-03-15T12:14:33Z</time>
      </trkpt>
      <trkpt lat="46.23883" lon="6.73459">
        <ele>1864</ele>
        <time>2025-03-15T12:14:35Z</time>
      </trkpt>
      <trkpt lat="46.23883" lon="6.73454">
        <ele>1864</ele>
        <time>2025-03-15T12:14:37Z</time>
      </trkpt>
      <trkpt lat="46.23884" lon="6.73449">
        <ele>1862</ele>
        <time>2025-03-15T12:14:41Z</time>
      </trkpt>
      <trkpt lat="46.23878" lon="6.73448">
        <ele>1861</ele>
        <time>2025-03-15T12:14:55Z</time>
      </trkpt>
      <trkpt lat="46.23874" lon="6.73457">
        <ele>1858</ele>
        <time>2025-03-15T12:14:57Z</time>
      </trkpt>
      <trkpt lat="46.2387" lon="6.73457">
        <ele>1856</ele>
        <time>2025-03-15T12:14:59Z</time>
      </trkpt>
      <trkpt lat="46.2387" lon="6.73451">
        <ele>1855</ele>
        <time>2025-03-15T12:15:01Z</time>
      </trkpt>
      <trkpt lat="46.23864" lon="6.73451">
        <ele>1850</ele>
        <time>2025-03-15T12:15:09Z</time>
      </trkpt>
      <trkpt lat="46.23858" lon="6.73458">
        <ele>1848</ele>
        <time>2025-03-15T12:15:11Z</time>
      </trkpt>
      <trkpt lat="46.23854" lon="6.73454">
        <ele>1847</ele>
        <time>2025-03-15T12:15:13Z</time>
      </trkpt>
      <trkpt lat="46.23853" lon="6.73448">
        <ele>1845</ele>
        <time>2025-03-15T12:15:15Z</time>
      </trkpt>
      <trkpt lat="46.23849" lon="6.73451">
        <ele>1844</ele>
        <time>2025-03-15T12:15:17Z</time>
      </trkpt>
      <trkpt lat="46.23846" lon="6.73455">
        <ele>1842</ele>
        <time>2025-03-15T12:15:19Z</time>
      </trkpt>
      <trkpt lat="46.2384" lon="6.73457">
        <ele>1842</ele>
        <time>2025-03-15T12:15:33Z</time>
      </trkpt>
      <trkpt lat="46.23836" lon="6.73452">
        <ele>1839</ele>
        <time>2025-03-15T12:15:35Z</time>
      </trkpt>
      <trkpt lat="46.23836" lon="6.73447">
        <ele>1838</ele>
        <time>2025-03-15T12:15:37Z</time>
      </trkpt>
      <trkpt lat="46.23833" lon="6.73451">
        <ele>1837</ele>
        <time>2025-03-15T12:15:39Z</time>
      </trkpt>
      <trkpt lat="46.23829" lon="6.73451">
        <ele>1834</ele>
        <time>2025-03-15T12:16:21Z</time>
      </trkpt>
      <trkpt lat="46.23825" lon="6.73453">
        <ele>1834</ele>
        <time>2025-03-15T12:16:23Z</time>
      </trkpt>
      <trkpt lat="46.23812" lon="6.73455">
        <ele>1831</ele>
        <time>2025-03-15T12:16:29Z</time>
      </trkpt>
      <trkpt lat="46.23789" lon="6.73456">
        <ele>1827</ele>
        <time>2025-03-15T12:16:35Z</time>
      </trkpt>
      <trkpt lat="46.2378" lon="6.73455">
        <ele>1825</ele>
        <time>2025-03-15T12:16:39Z</time>
      </trkpt>
      <trkpt lat="46.23773" lon="6.73456">
        <ele>1823</ele>
        <time>2025-03-15T12:16:41Z</time>
      </trkpt>
      <trkpt lat="46.23766" lon="6.7346">
        <ele>1821</ele>
        <time>2025-03-15T12:16:43Z</time>
      </trkpt>
      <trkpt lat="46.23763" lon="6.73464">
        <ele>1820</ele>
        <time>2025-03-15T12:16:47Z</time>
      </trkpt>
      <trkpt lat="46.23749" lon="6.73463">
        <ele>1817</ele>
        <time>2025-03-15T12:16:55Z</time>
      </trkpt>
      <trkpt lat="46.23743" lon="6.73465">
        <ele>1815</ele>
        <time>2025-03-15T12:16:57Z</time>
      </trkpt>
      <trkpt lat="46.23736" lon="6.73466">
        <ele>1814</ele>
        <time>2025-03-15T12:16:59Z</time>
      </trkpt>
      <trkpt lat="46.2373" lon="6.73465">
        <ele>1812</ele>
        <time>2025-03-15T12:17:01Z</time>
      </trkpt>
      <trkpt lat="46.23724" lon="6.73466">
        <ele>1811</ele>
        <time>2025-03-15T12:17:03Z</time>
      </trkpt>
      <trkpt lat="46.23718" lon="6.73468">
        <ele>1809</ele>
        <time>2025-03-15T12:17:05Z</time>
      </trkpt>
      <trkpt lat="46.23709" lon="6.73464">
        <ele>1807</ele>
        <time>2025-03-15T12:17:15Z</time>
      </trkpt>
      <trkpt lat="46.23703" lon="6.73462">
        <ele>1806</ele>
        <time>2025-03-15T12:17:17Z</time>
      </trkpt>
      <trkpt lat="46.23698" lon="6.73467">
        <ele>1803</ele>
        <time>2025-03-15T12:17:19Z</time>
      </trkpt>
      <trkpt lat="46.23698" lon="6.7346">
        <ele>1801</ele>
        <time>2025-03-15T12:17:21Z</time>
      </trkpt>
      <trkpt lat="46.23699" lon="6.7345">
        <ele>1798</ele>
        <time>2025-03-15T12:17:23Z</time>
      </trkpt>
      <trkpt lat="46.23696" lon="6.73445">
        <ele>1797</ele>
        <time>2025-03-15T12:17:25Z</time>
      </trkpt>
      <trkpt lat="46.23692" lon="6.73447">
        <ele>1795</ele>
        <time>2025-03-15T12:17:27Z</time>
      </trkpt>
      <trkpt lat="46.23682" lon="6.73453">
        <ele>1793</ele>
        <time>2025-03-15T12:17:30Z</time>
      </trkpt>
      <trkpt lat="46.23668" lon="6.73458">
        <ele>1791</ele>
        <time>2025-03-15T12:17:34Z</time>
      </trkpt>
      <trkpt lat="46.23659" lon="6.73468">
        <ele>1788</ele>
        <time>2025-03-15T12:17:38Z</time>
      </trkpt>
      <trkpt lat="46.23651" lon="6.73467">
        <ele>1785</ele>
        <time>2025-03-15T12:17:50Z</time>
      </trkpt>
      <trkpt lat="46.23638" lon="6.73476">
        <ele>1782</ele>
        <time>2025-03-15T12:17:54Z</time>
      </trkpt>
      <trkpt lat="46.23631" lon="6.73483">
        <ele>1780</ele>
        <time>2025-03-15T12:17:56Z</time>
      </trkpt>
      <trkpt lat="46.23626" lon="6.73492">
        <ele>1779</ele>
        <time>2025-03-15T12:18:00Z</time>
      </trkpt>
      <trkpt lat="46.23619" lon="6.73495">
        <ele>1777</ele>
        <time>2025-03-15T12:18:38Z</time>
      </trkpt>
      <trkpt lat="46.23615" lon="6.73501">
        <ele>1776</ele>
        <time>2025-03-15T12:18:40Z</time>
      </trkpt>
      <trkpt lat="46.23612" lon="6.73504">
        <ele>1774</ele>
        <time>2025-03-15T12:18:42Z</time>
      </trkpt>
      <trkpt lat="46.23608" lon="6.73503">
        <ele>1773</ele>
        <time>2025-03-15T12:18:48Z</time>
      </trkpt>
      <trkpt lat="46.236" lon="6.73501">
        <ele>1771</ele>
        <time>2025-03-15T12:18:50Z</time>
      </trkpt>
      <trkpt lat="46.23573" lon="6.73502">
        <ele>1767</ele>
        <time>2025-03-15T12:19:26Z</time>
      </trkpt>
      <trkpt lat="46.23563" lon="6.73506">
        <ele>1764</ele>
        <time>2025-03-15T12:19:36Z</time>
      </trkpt>
      <trkpt lat="46.23537" lon="6.73517">
        <ele>1759</ele>
        <time>2025-03-15T12:19:46Z</time>
      </trkpt>
      <trkpt lat="46.23531" lon="6.73517">
        <ele>1759</ele>
        <time>2025-03-15T12:19:50Z</time>
      </trkpt>
      <trkpt lat="46.2352" lon="6.73536">
        <ele>1757</ele>
        <time>2025-03-15T12:20:12Z</time>
      </trkpt>
      <trkpt lat="46.23514" lon="6.73547">
        <ele>1754</ele>
        <time>2025-03-15T12:20:20Z</time>
      </trkpt>
      <trkpt lat="46.23505" lon="6.73553">
        <ele>1754</ele>
        <time>2025-03-15T12:20:30Z</time>
      </trkpt>
      <trkpt lat="46.23496" lon="6.73558">
        <ele>1752</ele>
        <time>2025-03-15T12:20:36Z</time>
      </trkpt>
      <trkpt lat="46.23476" lon="6.73587">
        <ele>1749</ele>
        <time>2025-03-15T12:21:48Z</time>
      </trkpt>
      <trkpt lat="46.23459" lon="6.73603">
        <ele>1749</ele>
        <time>2025-03-15T12:22:04Z</time>
      </trkpt>
      <trkpt lat="46.2345" lon="6.73612">
        <ele>1748</ele>
        <time>2025-03-15T12:22:12Z</time>
      </trkpt>
      <trkpt lat="46.23431" lon="6.73626">
        <ele>1747</ele>
        <time>2025-03-15T12:22:40Z</time>
      </trkpt>
      <trkpt lat="46.23413" lon="6.73624">
        <ele>1744</ele>
        <time>2025-03-15T12:23:06Z</time>
      </trkpt>
      <trkpt lat="46.23402" lon="6.73627">
        <ele>1742</ele>
        <time>2025-03-15T12:23:16Z</time>
      </trkpt>
      <trkpt lat="46.23393" lon="6.73636">
        <ele>1741</ele>
        <time>2025-03-15T12:23:20Z</time>
      </trkpt>
      <trkpt lat="46.23354" lon="6.73669">
        <ele>1736</ele>
        <time>2025-03-15T12:23:32Z</time>
      </trkpt>
      <trkpt lat="46.23343" lon="6.73675">
        <ele>1734</ele>
        <time>2025-03-15T12:23:38Z</time>
      </trkpt>
      <trkpt lat="46.23315" lon="6.73684">
        <ele>1730</ele>
        <time>2025-03-15T12:23:52Z</time>
      </trkpt>
      <trkpt lat="46.23293" lon="6.73703">
        <ele>1726</ele>
        <time>2025-03-15T12:24:02Z</time>
      </trkpt>
      <trkpt lat="46.23287" lon="6.73703">
        <ele>1724</ele>
        <time>2025-03-15T12:24:12Z</time>
      </trkpt>
      <trkpt lat="46.23253" lon="6.7373">
        <ele>1715</ele>
        <time>2025-03-15T12:24:26Z</time>
      </trkpt>
      <trkpt lat="46.23227" lon="6.7376">
        <ele>1709</ele>
        <time>2025-03-15T12:24:58Z</time>
      </trkpt>
      <trkpt lat="46.23222" lon="6.73771">
        <ele>1709</ele>
        <time>2025-03-15T12:26:08Z</time>
      </trkpt>
      <trkpt lat="46.23216" lon="6.73783">
        <ele>1706</ele>
        <time>2025-03-15T12:26:16Z</time>
      </trkpt>
      <trkpt lat="46.23214" lon="6.73796">
        <ele>1705</ele>
        <time>2025-03-15T12:26:20Z</time>
      </trkpt>
      <trkpt lat="46.23207" lon="6.73788">
        <ele>1703</ele>
        <time>2025-03-15T12:26:26Z</time>
      </trkpt>
      <trkpt lat="46.23199" lon="6.73803">
        <ele>1699</ele>
        <time>2025-03-15T12:26:30Z</time>
      </trkpt>
      <trkpt lat="46.23187" lon="6.73817">
        <ele>1696</ele>
        <time>2025-03-15T12:26:34Z</time>
      </trkpt>
      <trkpt lat="46.23184" lon="6.73832">
        <ele>1691</ele>
        <time>2025-03-15T12:26:38Z</time>
      </trkpt>
      <trkpt lat="46.23177" lon="6.7384">
        <ele>1689</ele>
        <time>2025-03-15T12:26:50Z</time>
      </trkpt>
      <trkpt lat="46.2317" lon="6.73856">
        <ele>1684</ele>
        <time>2025-03-15T12:26:54Z</time>
      </trkpt>
      <trkpt lat="46.23164" lon="6.73867">
        <ele>1680</ele>
        <time>2025-03-15T12:27:04Z</time>
      </trkpt>
      <trkpt lat="46.23152" lon="6.73886">
        <ele>1675</ele>
        <time>2025-03-15T12:27:08Z</time>
      </trkpt>
      <trkpt lat="46.23147" lon="6.73899">
        <ele>1672</ele>
        <time>2025-03-15T12:27:10Z</time>
      </trkpt>
      <trkpt lat="46.23142" lon="6.73911">
        <ele>1670</ele>
        <time>2025-03-15T12:27:12Z</time>
      </trkpt>
      <trkpt lat="46.23135" lon="6.73927">
        <ele>1665</ele>
        <time>2025-03-15T12:27:40Z</time>
      </trkpt>
      <trkpt lat="46.23127" lon="6.73946">
        <ele>1662</ele>
        <time>2025-03-15T12:27:44Z</time>
      </trkpt>
      <trkpt lat="46.23121" lon="6.7397">
        <ele>1658</ele>
        <time>2025-03-15T12:27:48Z</time>
      </trkpt>
      <trkpt lat="46.23099" lon="6.74059">
        <ele>1649</ele>
        <time>2025-03-15T12:28:10Z</time>
      </trkpt>
      <trkpt lat="46.23096" lon="6.74091">
        <ele>1644</ele>
        <time>2025-03-15T12:28:16Z</time>
      </trkpt>
      <trkpt lat="46.23096" lon="6.74105">
        <ele>1642</ele>
        <time>2025-03-15T12:28:18Z</time>
      </trkpt>
      <trkpt lat="46.23099" lon="6.74117">
        <ele>1641</ele>
        <time>2025-03-15T12:28:20Z</time>
      </trkpt>
      <trkpt lat="46.23099" lon="6.74132">
        <ele>1639</ele>
        <time>2025-03-15T12:28:42Z</time>
      </trkpt>
      <trkpt lat="46.23103" lon="6.74145">
        <ele>1637</ele>
        <time>2025-03-15T12:28:44Z</time>
      </trkpt>
      <trkpt lat="46.23112" lon="6.74156">
        <ele>1634</ele>
        <time>2025-03-15T12:28:48Z</time>
      </trkpt>
      <trkpt lat="46.23111" lon="6.74169">
        <ele>1632</ele>
        <time>2025-03-15T12:29:18Z</time>
      </trkpt>
      <trkpt lat="46.23113" lon="6.74207">
        <ele>1629</ele>
        <time>2025-03-15T12:29:26Z</time>
      </trkpt>
      <trkpt lat="46.23118" lon="6.74223">
        <ele>1627</ele>
        <time>2025-03-15T12:29:30Z</time>
      </trkpt>
      <trkpt lat="46.23119" lon="6.74236">
        <ele>1626</ele>
        <time>2025-03-15T12:29:34Z</time>
      </trkpt>
      <trkpt lat="46.23116" lon="6.74241">
        <ele>1624</ele>
        <time>2025-03-15T12:30:06Z</time>
      </trkpt>
      <trkpt lat="46.2311" lon="6.74247">
        <ele>1625</ele>
        <time>2025-03-15T12:30:18Z</time>
      </trkpt>
      <trkpt lat="46.23099" lon="6.74257">
        <ele>1623</ele>
        <time>2025-03-15T12:30:22Z</time>
      </trkpt>
      <trkpt lat="46.23097" lon="6.74266">
        <ele>1622</ele>
        <time>2025-03-15T12:31:10Z</time>
      </trkpt>
      <trkpt lat="46.23098" lon="6.74277">
        <ele>1621</ele>
        <time>2025-03-15T12:31:12Z</time>
      </trkpt>
      <trkpt lat="46.23116" lon="6.74356">
        <ele>1613</ele>
        <time>2025-03-15T12:31:30Z</time>
      </trkpt>
      <trkpt lat="46.23123" lon="6.74375">
        <ele>1610</ele>
        <time>2025-03-15T12:31:34Z</time>
      </trkpt>
      <trkpt lat="46.23128" lon="6.74387">
        <ele>1607</ele>
        <time>2025-03-15T12:32:22Z</time>
      </trkpt>
      <trkpt lat="46.23134" lon="6.74372">
        <ele>1607</ele>
        <time>2025-03-15T12:32:28Z</time>
      </trkpt>
      <trkpt lat="46.23145" lon="6.74376">
        <ele>1600</ele>
        <time>2025-03-15T12:32:36Z</time>
      </trkpt>
      <trkpt lat="46.2315" lon="6.7436">
        <ele>1597</ele>
        <time>2025-03-15T12:32:42Z</time>
      </trkpt>
      <trkpt lat="46.23152" lon="6.74351">
        <ele>1594</ele>
        <time>2025-03-15T12:32:46Z</time>
      </trkpt>
      <trkpt lat="46.23155" lon="6.74348">
        <ele>1592</ele>
        <time>2025-03-15T12:32:48Z</time>
      </trkpt>
      <trkpt lat="46.23157" lon="6.74354">
        <ele>1591</ele>
        <time>2025-03-15T12:32:50Z</time>
      </trkpt>
      <trkpt lat="46.23156" lon="6.7436">
        <ele>1589</ele>
        <time>2025-03-15T12:32:56Z</time>
      </trkpt>
      <trkpt lat="46.23168" lon="6.74394">
        <ele>1584</ele>
        <time>2025-03-15T12:33:14Z</time>
      </trkpt>
      <trkpt lat="46.23172" lon="6.74395">
        <ele>1583</ele>
        <time>2025-03-15T12:33:16Z</time>
      </trkpt>
      <trkpt lat="46.23173" lon="6.74384">
        <ele>1581</ele>
        <time>2025-03-15T12:33:20Z</time>
      </trkpt>
      <trkpt lat="46.23175" lon="6.74377">
        <ele>1580</ele>
        <time>2025-03-15T12:33:22Z</time>
      </trkpt>
      <trkpt lat="46.23178" lon="6.74379">
        <ele>1579</ele>
        <time>2025-03-15T12:33:24Z</time>
      </trkpt>
      <trkpt lat="46.23179" lon="6.74388">
        <ele>1576</ele>
        <time>2025-03-15T12:33:28Z</time>
      </trkpt>
      <trkpt lat="46.23184" lon="6.74389">
        <ele>1576</ele>
        <time>2025-03-15T12:33:30Z</time>
      </trkpt>
      <trkpt lat="46.23187" lon="6.74381">
        <ele>1574</ele>
        <time>2025-03-15T12:33:32Z</time>
      </trkpt>
      <trkpt lat="46.23187" lon="6.74374">
        <ele>1573</ele>
        <time>2025-03-15T12:33:34Z</time>
      </trkpt>
      <trkpt lat="46.23192" lon="6.74378">
        <ele>1570</ele>
        <time>2025-03-15T12:33:38Z</time>
      </trkpt>
      <trkpt lat="46.23195" lon="6.74385">
        <ele>1567</ele>
        <time>2025-03-15T12:33:40Z</time>
      </trkpt>
      <trkpt lat="46.232" lon="6.74381">
        <ele>1566</ele>
        <time>2025-03-15T12:33:42Z</time>
      </trkpt>
      <trkpt lat="46.232" lon="6.74376">
        <ele>1565</ele>
        <time>2025-03-15T12:33:44Z</time>
      </trkpt>
      <trkpt lat="46.23209" lon="6.74386">
        <ele>1561</ele>
        <time>2025-03-15T12:34:06Z</time>
      </trkpt>
      <trkpt lat="46.23218" lon="6.744">
        <ele>1554</ele>
        <time>2025-03-15T12:34:24Z</time>
      </trkpt>
      <trkpt lat="46.23225" lon="6.74391">
        <ele>1552</ele>
        <time>2025-03-15T12:34:30Z</time>
      </trkpt>
      <trkpt lat="46.23232" lon="6.74401">
        <ele>1550</ele>
        <time>2025-03-15T12:34:36Z</time>
      </trkpt>
      <trkpt lat="46.23243" lon="6.74371">
        <ele>1543</ele>
        <time>2025-03-15T12:34:46Z</time>
      </trkpt>
      <trkpt lat="46.23253" lon="6.74371">
        <ele>1537</ele>
        <time>2025-03-15T12:34:58Z</time>
      </trkpt>
      <trkpt lat="46.23256" lon="6.74378">
        <ele>1530</ele>
        <time>2025-03-15T12:35:12Z</time>
      </trkpt>
      <trkpt lat="46.23258" lon="6.74384">
        <ele>1528</ele>
        <time>2025-03-15T12:35:46Z</time>
      </trkpt>
      <trkpt lat="46.23265" lon="6.74387">
        <ele>1526</ele>
        <time>2025-03-15T12:35:48Z</time>
      </trkpt>
      <trkpt lat="46.23269" lon="6.74393">
        <ele>1524</ele>
        <time>2025-03-15T12:35:50Z</time>
      </trkpt>
      <trkpt lat="46.23271" lon="6.74402">
        <ele>1522</ele>
        <time>2025-03-15T12:35:52Z</time>
      </trkpt>
      <trkpt lat="46.23278" lon="6.74398">
        <ele>1519</ele>
        <time>2025-03-15T12:35:54Z</time>
      </trkpt>
      <trkpt lat="46.23281" lon="6.74404">
        <ele>1518</ele>
        <time>2025-03-15T12:35:56Z</time>
      </trkpt>
      <trkpt lat="46.23283" lon="6.74411">
        <ele>1515</ele>
        <time>2025-03-15T12:36:00Z</time>
      </trkpt>
      <trkpt lat="46.23288" lon="6.74411">
        <ele>1513</ele>
        <time>2025-03-15T12:36:02Z</time>
      </trkpt>
      <trkpt lat="46.23291" lon="6.74417">
        <ele>1512</ele>
        <time>2025-03-15T12:36:04Z</time>
      </trkpt>
      <trkpt lat="46.23294" lon="6.74428">
        <ele>1509</ele>
        <time>2025-03-15T12:36:08Z</time>
      </trkpt>
      <trkpt lat="46.23299" lon="6.74424">
        <ele>1508</ele>
        <time>2025-03-15T12:36:10Z</time>
      </trkpt>
      <trkpt lat="46.23303" lon="6.74421">
        <ele>1507</ele>
        <time>2025-03-15T12:36:12Z</time>
      </trkpt>
      <trkpt lat="46.23315" lon="6.74428">
        <ele>1504</ele>
        <time>2025-03-15T12:36:18Z</time>
      </trkpt>
      <trkpt lat="46.23327" lon="6.74422">
        <ele>1496</ele>
        <time>2025-03-15T12:36:24Z</time>
      </trkpt>
      <trkpt lat="46.2333" lon="6.74436">
        <ele>1493</ele>
        <time>2025-03-15T12:36:30Z</time>
      </trkpt>
      <trkpt lat="46.23335" lon="6.74442">
        <ele>1487</ele>
        <time>2025-03-15T12:36:38Z</time>
      </trkpt>
      <trkpt lat="46.23343" lon="6.74442">
        <ele>1485</ele>
        <time>2025-03-15T12:36:40Z</time>
      </trkpt>
      <trkpt lat="46.23347" lon="6.7446">
        <ele>1481</ele>
        <time>2025-03-15T12:36:44Z</time>
      </trkpt>
      <trkpt lat="46.23347" lon="6.74468">
        <ele>1478</ele>
        <time>2025-03-15T12:36:58Z</time>
      </trkpt>
      <trkpt lat="46.23349" lon="6.74482">
        <ele>1476</ele>
        <time>2025-03-15T12:38:08Z</time>
      </trkpt>
      <trkpt lat="46.23354" lon="6.74496">
        <ele>1473</ele>
        <time>2025-03-15T12:38:12Z</time>
      </trkpt>
      <trkpt lat="46.23367" lon="6.74499">
        <ele>1471</ele>
        <time>2025-03-15T12:38:16Z</time>
      </trkpt>
      <trkpt lat="46.23376" lon="6.74485">
        <ele>1466</ele>
        <time>2025-03-15T12:38:20Z</time>
      </trkpt>
      <trkpt lat="46.23385" lon="6.74475">
        <ele>1461</ele>
        <time>2025-03-15T12:38:24Z</time>
      </trkpt>
      <trkpt lat="46.23396" lon="6.74484">
        <ele>1456</ele>
        <time>2025-03-15T12:38:30Z</time>
      </trkpt>
      <trkpt lat="46.23405" lon="6.74496">
        <ele>1450</ele>
        <time>2025-03-15T12:38:36Z</time>
      </trkpt>
      <trkpt lat="46.23413" lon="6.74502">
        <ele>1446</ele>
        <time>2025-03-15T12:38:52Z</time>
      </trkpt>
      <trkpt lat="46.23418" lon="6.74514">
        <ele>1441</ele>
        <time>2025-03-15T12:38:58Z</time>
      </trkpt>
      <trkpt lat="46.23427" lon="6.74515">
        <ele>1439</ele>
        <time>2025-03-15T12:39:13Z</time>
      </trkpt>
      <trkpt lat="46.23435" lon="6.74521">
        <ele>1434</ele>
        <time>2025-03-15T12:39:45Z</time>
      </trkpt>
      <trkpt lat="46.23441" lon="6.74534">
        <ele>1433</ele>
        <time>2025-03-15T12:39:51Z</time>
      </trkpt>
      <trkpt lat="46.2345" lon="6.74525">
        <ele>1432</ele>
        <time>2025-03-15T12:39:55Z</time>
      </trkpt>
      <trkpt lat="46.23459" lon="6.74527">
        <ele>1427</ele>
        <time>2025-03-15T12:39:59Z</time>
      </trkpt>
      <trkpt lat="46.2347" lon="6.74533">
        <ele>1425</ele>
        <time>2025-03-15T12:40:03Z</time>
      </trkpt>
      <trkpt lat="46.23474" lon="6.74545">
        <ele>1421</ele>
        <time>2025-03-15T12:40:07Z</time>
      </trkpt>
      <trkpt lat="46.23487" lon="6.74558">
        <ele>1416</ele>
        <time>2025-03-15T12:40:11Z</time>
      </trkpt>
      <trkpt lat="46.23498" lon="6.74571">
        <ele>1413</ele>
        <time>2025-03-15T12:40:15Z</time>
      </trkpt>
      <trkpt lat="46.23512" lon="6.74574">
        <ele>1408</ele>
        <time>2025-03-15T12:40:19Z</time>
      </trkpt>
      <trkpt lat="46.23523" lon="6.74561">
        <ele>1404</ele>
        <time>2025-03-15T12:40:23Z</time>
      </trkpt>
      <trkpt lat="46.23537" lon="6.74555">
        <ele>1402</ele>
        <time>2025-03-15T12:40:27Z</time>
      </trkpt>
      <trkpt lat="46.2355" lon="6.74559">
        <ele>1397</ele>
        <time>2025-03-15T12:40:31Z</time>
      </trkpt>
      <trkpt lat="46.23557" lon="6.7457">
        <ele>1396</ele>
        <time>2025-03-15T12:40:35Z</time>
      </trkpt>
      <trkpt lat="46.23564" lon="6.74581">
        <ele>1392</ele>
        <time>2025-03-15T12:40:39Z</time>
      </trkpt>
      <trkpt lat="46.23572" lon="6.7459">
        <ele>1390</ele>
        <time>2025-03-15T12:40:43Z</time>
      </trkpt>
      <trkpt lat="46.23585" lon="6.74599">
        <ele>1387</ele>
        <time>2025-03-15T12:40:47Z</time>
      </trkpt>
      <trkpt lat="46.23606" lon="6.7461">
        <ele>1382</ele>
        <time>2025-03-15T12:40:55Z</time>
      </trkpt>
      <trkpt lat="46.23615" lon="6.74618">
        <ele>1380</ele>
        <time>2025-03-15T12:40:59Z</time>
      </trkpt>
      <trkpt lat="46.23623" lon="6.74643">
        <ele>1377</ele>
        <time>2025-03-15T12:41:05Z</time>
      </trkpt>
      <trkpt lat="46.23626" lon="6.74656">
        <ele>1375</ele>
        <time>2025-03-15T12:41:07Z</time>
      </trkpt>
      <trkpt lat="46.23635" lon="6.74687">
        <ele>1371</ele>
        <time>2025-03-15T12:41:13Z</time>
      </trkpt>
      <trkpt lat="46.23638" lon="6.74697">
        <ele>1368</ele>
        <time>2025-03-15T12:41:16Z</time>
      </trkpt>
      <trkpt lat="46.23646" lon="6.74704">
        <ele>1365</ele>
        <time>2025-03-15T12:41:21Z</time>
      </trkpt>
      <trkpt lat="46.23653" lon="6.74715">
        <ele>1362</ele>
        <time>2025-03-15T12:41:25Z</time>
      </trkpt>
      <trkpt lat="46.23656" lon="6.74722">
        <ele>1362</ele>
        <time>2025-03-15T12:41:27Z</time>
      </trkpt>
      <trkpt lat="46.23658" lon="6.74731">
        <ele>1360</ele>
        <time>2025-03-15T12:41:29Z</time>
      </trkpt>
      <trkpt lat="46.23663" lon="6.74741">
        <ele>1358</ele>
        <time>2025-03-15T12:41:31Z</time>
      </trkpt>
      <trkpt lat="46.23671" lon="6.74749">
        <ele>1357</ele>
        <time>2025-03-15T12:41:33Z</time>
      </trkpt>
      <trkpt lat="46.23687" lon="6.74756">
        <ele>1353</ele>
        <time>2025-03-15T12:41:37Z</time>
      </trkpt>
      <trkpt lat="46.23702" lon="6.74764">
        <ele>1351</ele>
        <time>2025-03-15T12:41:43Z</time>
      </trkpt>
      <trkpt lat="46.23709" lon="6.74771">
        <ele>1350</ele>
        <time>2025-03-15T12:41:51Z</time>
      </trkpt>
      <trkpt lat="46.23719" lon="6.74792">
        <ele>1346</ele>
        <time>2025-03-15T12:42:17Z</time>
      </trkpt>
      <trkpt lat="46.23727" lon="6.74799">
        <ele>1345</ele>
        <time>2025-03-15T12:42:27Z</time>
      </trkpt>
      <trkpt lat="46.23743" lon="6.74819">
        <ele>1343</ele>
        <time>2025-03-15T12:42:35Z</time>
      </trkpt>
      <trkpt lat="46.23748" lon="6.74831">
        <ele>1341</ele>
        <time>2025-03-15T12:42:37Z</time>
      </trkpt>
      <trkpt lat="46.23751" lon="6.74843">
        <ele>1340</ele>
        <time>2025-03-15T12:42:41Z</time>
      </trkpt>
      <trkpt lat="46.2376" lon="6.74846">
        <ele>1339</ele>
        <time>2025-03-15T12:42:51Z</time>
      </trkpt>
      <trkpt lat="46.23771" lon="6.7485">
        <ele>1334</ele>
        <time>2025-03-15T12:43:05Z</time>
      </trkpt>
      <trkpt lat="46.23776" lon="6.74869">
        <ele>1329</ele>
        <time>2025-03-15T12:43:09Z</time>
      </trkpt>
      <trkpt lat="46.23786" lon="6.74869">
        <ele>1327</ele>
        <time>2025-03-15T12:43:51Z</time>
      </trkpt>
      <trkpt lat="46.23813" lon="6.74856">
        <ele>1323</ele>
        <time>2025-03-15T12:43:57Z</time>
      </trkpt>
      <trkpt lat="46.23823" lon="6.74848">
        <ele>1319</ele>
        <time>2025-03-15T12:43:59Z</time>
      </trkpt>
      <trkpt lat="46.23835" lon="6.74843">
        <ele>1318</ele>
        <time>2025-03-15T12:44:01Z</time>
      </trkpt>
      <trkpt lat="46.23848" lon="6.74843">
        <ele>1315</ele>
        <time>2025-03-15T12:44:03Z</time>
      </trkpt>
      <trkpt lat="46.2386" lon="6.74844">
        <ele>1314</ele>
        <time>2025-03-15T12:44:05Z</time>
      </trkpt>
      <trkpt lat="46.23872" lon="6.74843">
        <ele>1310</ele>
        <time>2025-03-15T12:44:07Z</time>
      </trkpt>
      <trkpt lat="46.23885" lon="6.74846">
        <ele>1309</ele>
        <time>2025-03-15T12:44:09Z</time>
      </trkpt>
      <trkpt lat="46.23896" lon="6.74848">
        <ele>1306</ele>
        <time>2025-03-15T12:44:11Z</time>
      </trkpt>
      <trkpt lat="46.23906" lon="6.74851">
        <ele>1304</ele>
        <time>2025-03-15T12:44:13Z</time>
      </trkpt>
      <trkpt lat="46.23927" lon="6.74864">
        <ele>1299</ele>
        <time>2025-03-15T12:44:17Z</time>
      </trkpt>
      <trkpt lat="46.23938" lon="6.74873">
        <ele>1295</ele>
        <time>2025-03-15T12:44:19Z</time>
      </trkpt>
      <trkpt lat="46.23952" lon="6.74877">
        <ele>1293</ele>
        <time>2025-03-15T12:44:21Z</time>
      </trkpt>
      <trkpt lat="46.23967" lon="6.74901">
        <ele>1290</ele>
        <time>2025-03-15T12:44:25Z</time>
      </trkpt>
      <trkpt lat="46.2399" lon="6.74912">
        <ele>1287</ele>
        <time>2025-03-15T12:44:29Z</time>
      </trkpt>
      <trkpt lat="46.24001" lon="6.74912">
        <ele>1284</ele>
        <time>2025-03-15T12:44:31Z</time>
      </trkpt>
      <trkpt lat="46.24099" lon="6.74968">
        <ele>1275</ele>
        <time>2025-03-15T12:44:59Z</time>
      </trkpt>
      <trkpt lat="46.24113" lon="6.74983">
        <ele>1273</ele>
        <time>2025-03-15T12:45:13Z</time>
      </trkpt>
      <trkpt lat="46.24115" lon="6.74996">
        <ele>1271</ele>
        <time>2025-03-15T12:45:19Z</time>
      </trkpt>
      <trkpt lat="46.24136" lon="6.75046">
        <ele>1271</ele>
        <time>2025-03-15T12:45:51Z</time>
      </trkpt>
      <trkpt lat="46.24139" lon="6.75061">
        <ele>1271</ele>
        <time>2025-03-15T12:45:57Z</time>
      </trkpt>
      <trkpt lat="46.24144" lon="6.75075">
        <ele>1271</ele>
        <time>2025-03-15T12:46:03Z</time>
      </trkpt>
      <trkpt lat="46.24148" lon="6.75091">
        <ele>1269</ele>
        <time>2025-03-15T12:46:13Z</time>
      </trkpt>
      <trkpt lat="46.24152" lon="6.75104">
        <ele>1270</ele>
        <time>2025-03-15T12:46:59Z</time>
      </trkpt>
      <trkpt lat="46.24162" lon="6.75132">
        <ele>1270</ele>
        <time>2025-03-15T12:47:23Z</time>
      </trkpt>
      <trkpt lat="46.24175" lon="6.75158">
        <ele>1271</ele>
        <time>2025-03-15T12:47:47Z</time>
      </trkpt>
      <trkpt lat="46.24184" lon="6.75166">
        <ele>1272</ele>
        <time>2025-03-15T12:48:07Z</time>
      </trkpt>
      <trkpt lat="46.24191" lon="6.75179">
        <ele>1272</ele>
        <time>2025-03-15T12:48:27Z</time>
      </trkpt>
      <trkpt lat="46.24205" lon="6.75233">
        <ele>1270</ele>
        <time>2025-03-15T12:48:57Z</time>
      </trkpt>
      <trkpt lat="46.2421" lon="6.75245">
        <ele>1270</ele>
        <time>2025-03-15T12:49:07Z</time>
      </trkpt>
      <trkpt lat="46.24218" lon="6.75253">
        <ele>1271</ele>
        <time>2025-03-15T12:49:23Z</time>
      </trkpt>
      <trkpt lat="46.24235" lon="6.75289">
        <ele>1274</ele>
        <time>2025-03-15T12:49:53Z</time>
      </trkpt>
      <trkpt lat="46.24237" lon="6.75308">
        <ele>1271</ele>
        <time>2025-03-15T12:49:57Z</time>
      </trkpt>
      <trkpt lat="46.24244" lon="6.75319">
        <ele>1270</ele>
        <time>2025-03-15T12:50:09Z</time>
      </trkpt>
      <trkpt lat="46.24251" lon="6.7533">
        <ele>1270</ele>
        <time>2025-03-15T12:50:15Z</time>
      </trkpt>
      <trkpt lat="46.24273" lon="6.75353">
        <ele>1268</ele>
        <time>2025-03-15T12:50:23Z</time>
      </trkpt>
      <trkpt lat="46.24305" lon="6.75424">
        <ele>1264</ele>
        <time>2025-03-15T12:50:43Z</time>
      </trkpt>
      <trkpt lat="46.24331" lon="6.75466">
        <ele>1258</ele>
        <time>2025-03-15T12:51:19Z</time>
      </trkpt>
      <trkpt lat="46.24341" lon="6.75473">
        <ele>1259</ele>
        <time>2025-03-15T12:51:59Z</time>
      </trkpt>
      <trkpt lat="46.24352" lon="6.75477">
        <ele>1257</ele>
        <time>2025-03-15T12:52:07Z</time>
      </trkpt>
      <trkpt lat="46.24361" lon="6.75478">
        <ele>1256</ele>
        <time>2025-03-15T12:52:19Z</time>
      </trkpt>
      <trkpt lat="46.2437" lon="6.75481">
        <ele>1259</ele>
        <time>2025-03-15T12:52:29Z</time>
      </trkpt>
      <trkpt lat="46.24379" lon="6.75477">
        <ele>1259</ele>
        <time>2025-03-15T12:52:39Z</time>
      </trkpt>
      <trkpt lat="46.24388" lon="6.75473">
        <ele>1260</ele>
        <time>2025-03-15T12:53:03Z</time>
      </trkpt>
      <trkpt lat="46.24396" lon="6.75467">
        <ele>1261</ele>
        <time>2025-03-15T12:53:56Z</time>
      </trkpt>
      <trkpt lat="46.24401" lon="6.75464">
        <ele>1260</ele>
        <time>2025-03-15T12:53:58Z</time>
      </trkpt>
      <trkpt lat="46.24409" lon="6.75472">
        <ele>1258</ele>
        <time>2025-03-15T12:54:01Z</time>
      </trkpt>
      <trkpt lat="46.24419" lon="6.75515">
        <ele>1256</ele>
        <time>2025-03-15T12:54:07Z</time>
      </trkpt>
      <trkpt lat="46.24444" lon="6.75544">
        <ele>1252</ele>
        <time>2025-03-15T12:54:13Z</time>
      </trkpt>
      <trkpt lat="46.24463" lon="6.75554">
        <ele>1250</ele>
        <time>2025-03-15T12:54:17Z</time>
      </trkpt>
      <trkpt lat="46.24471" lon="6.75557">
        <ele>1248</ele>
        <time>2025-03-15T12:54:19Z</time>
      </trkpt>
      <trkpt lat="46.24494" lon="6.75564">
        <ele>1243</ele>
        <time>2025-03-15T12:54:25Z</time>
      </trkpt>
      <trkpt lat="46.24502" lon="6.75567">
        <ele>1242</ele>
        <time>2025-03-15T12:54:27Z</time>
      </trkpt>
      <trkpt lat="46.24511" lon="6.75568">
        <ele>1241</ele>
        <time>2025-03-15T12:54:29Z</time>
      </trkpt>
      <trkpt lat="46.24563" lon="6.75577">
        <ele>1233</ele>
        <time>2025-03-15T12:54:45Z</time>
      </trkpt>
      <trkpt lat="46.24613" lon="6.75573">
        <ele>1227</ele>
        <time>2025-03-15T12:54:57Z</time>
      </trkpt>
      <trkpt lat="46.24623" lon="6.75571">
        <ele>1226</ele>
        <time>2025-03-15T12:54:59Z</time>
      </trkpt>
      <trkpt lat="46.24634" lon="6.7557">
        <ele>1225</ele>
        <time>2025-03-15T12:55:01Z</time>
      </trkpt>
      <trkpt lat="46.2465" lon="6.75565">
        <ele>1223</ele>
        <time>2025-03-15T12:55:05Z</time>
      </trkpt>
      <trkpt lat="46.24657" lon="6.75557">
        <ele>1220</ele>
        <time>2025-03-15T12:55:43Z</time>
      </trkpt>
      <trkpt lat="46.24683" lon="6.75539">
        <ele>1214</ele>
        <time>2025-03-15T12:56:17Z</time>
      </trkpt>
      <trkpt lat="46.24693" lon="6.75537">
        <ele>1214</ele>
        <time>2025-03-15T12:56:29Z</time>
      </trkpt>
      <trkpt lat="46.24704" lon="6.75531">
        <ele>1214</ele>
        <time>2025-03-15T12:56:44Z</time>
      </trkpt>
      <trkpt lat="46.24732" lon="6.75528">
        <ele>1211</ele>
        <time>2025-03-15T12:57:18Z</time>
      </trkpt>
      <trkpt lat="46.24761" lon="6.75518">
        <ele>1206</ele>
        <time>2025-03-15T12:57:54Z</time>
      </trkpt>
    </trkseg>
  </trk>
</gpx>